<?xml version="1.0" encoding="UTF-8" standalone="no" ?>
<gpx xmlns="http://www.topografix.com/GPX/1/1" creator="MapSource 6.15.3" version="1.1" xmlns:xsi="http://www.w3.org/2001/XMLSchema-instance" xsi:schemaLocation="http://www.topografix.com/GPX/1/1 http://www.topografix.com/GPX/1/1/gpx.xsd">

  <metadata>
    <link href="http://www.garmin.com">
      <text>Garmin International</text>
    </link>
    <time>2009-02-03T13:08:55Z</time>
    <bounds maxlat="45.9487287" maxlon="9.6859212" minlat="45.7919245" minlon="9.6497613"/>
  </metadata>

  <wpt lat="45.7919833" lon="9.6614167">
    <ele>684.0000000</ele>
    <time>2009-02-03T13:08:28Z</time>
    <name>PARTENZA / ARRIVO</name>
    <cmt>Strada e Via Carondelli</cmt>
    <desc>Strada e Via Carondelli</desc>
    <sym>Bike Trail</sym>
    <extensions>
      <gpxx:WaypointExtension xmlns:gpxx="http://www.garmin.com/xmlschemas/GpxExtensions/v3">
        <gpxx:DisplayMode>SymbolAndName</gpxx:DisplayMode>
      </gpxx:WaypointExtension>
    </extensions>
  </wpt>

  <trk>
    <name>Ciclovia Brembana</name>
    <extensions>
      <gpxx:TrackExtension xmlns:gpxx="http://www.garmin.com/xmlschemas/GpxExtensions/v3">
        <gpxx:DisplayColor>Blue</gpxx:DisplayColor>
      </gpxx:TrackExtension>
    </extensions>
    <trkseg>
      <trkpt lat="45.7919793" lon="9.6614176">
        <ele>289.9748535</ele>
        <time>2009-01-31T09:15:02Z</time>
      </trkpt>
      <trkpt lat="45.7919974" lon="9.6614862">
        <ele>1803.5705566</ele>
        <time>2009-01-31T09:15:03Z</time>
      </trkpt>
      <trkpt lat="45.7920156" lon="9.6614982">
        <ele>1803.5705566</ele>
        <time>2009-01-31T09:15:04Z</time>
      </trkpt>
      <trkpt lat="45.7920115" lon="9.6615491">
        <ele>1803.5705566</ele>
        <time>2009-01-31T09:15:24Z</time>
      </trkpt>
      <trkpt lat="45.7920629" lon="9.6615532">
        <ele>1803.5705566</ele>
        <time>2009-01-31T09:16:07Z</time>
      </trkpt>
      <trkpt lat="45.7920304" lon="9.6615561">
        <ele>1803.5705566</ele>
        <time>2009-01-31T09:17:09Z</time>
      </trkpt>
      <trkpt lat="45.7920300" lon="9.6615563">
        <ele>301.5106201</ele>
        <time>2009-01-31T09:18:15Z</time>
      </trkpt>
      <trkpt lat="45.7920300" lon="9.6615563">
        <ele>301.5106201</ele>
        <time>2009-01-31T09:18:16Z</time>
      </trkpt>
      <trkpt lat="45.7920604" lon="9.6614987">
        <ele>301.5106201</ele>
        <time>2009-01-31T09:19:41Z</time>
      </trkpt>
      <trkpt lat="45.7919962" lon="9.6617546">
        <ele>301.5106201</ele>
        <time>2009-01-31T09:19:53Z</time>
      </trkpt>
      <trkpt lat="45.7919684" lon="9.6621488">
        <ele>301.9913330</ele>
        <time>2009-01-31T09:20:08Z</time>
      </trkpt>
      <trkpt lat="45.7919790" lon="9.6622157">
        <ele>301.9913330</ele>
        <time>2009-01-31T09:20:11Z</time>
      </trkpt>
      <trkpt lat="45.7919764" lon="9.6623636">
        <ele>301.9913330</ele>
        <time>2009-01-31T09:20:21Z</time>
      </trkpt>
      <trkpt lat="45.7920311" lon="9.6624033">
        <ele>301.9913330</ele>
        <time>2009-01-31T09:20:26Z</time>
      </trkpt>
      <trkpt lat="45.7921347" lon="9.6624792">
        <ele>302.4719238</ele>
        <time>2009-01-31T09:20:33Z</time>
      </trkpt>
      <trkpt lat="45.7921302" lon="9.6629961">
        <ele>302.4719238</ele>
        <time>2009-01-31T09:20:48Z</time>
      </trkpt>
      <trkpt lat="45.7920989" lon="9.6637361">
        <ele>302.9525146</ele>
        <time>2009-01-31T09:21:05Z</time>
      </trkpt>
      <trkpt lat="45.7921719" lon="9.6643769">
        <ele>303.4332275</ele>
        <time>2009-01-31T09:21:21Z</time>
      </trkpt>
      <trkpt lat="45.7921660" lon="9.6645737">
        <ele>303.4332275</ele>
        <time>2009-01-31T09:21:26Z</time>
      </trkpt>
      <trkpt lat="45.7919245" lon="9.6649731">
        <ele>303.4332275</ele>
        <time>2009-01-31T09:21:40Z</time>
      </trkpt>
      <trkpt lat="45.7919474" lon="9.6657388">
        <ele>303.9139404</ele>
        <time>2009-01-31T09:21:56Z</time>
      </trkpt>
      <trkpt lat="45.7920067" lon="9.6665344">
        <ele>305.3559570</ele>
        <time>2009-01-31T09:22:12Z</time>
      </trkpt>
      <trkpt lat="45.7920415" lon="9.6673796">
        <ele>306.7978516</ele>
        <time>2009-01-31T09:22:30Z</time>
      </trkpt>
      <trkpt lat="45.7921393" lon="9.6681877">
        <ele>307.7592773</ele>
        <time>2009-01-31T09:22:47Z</time>
      </trkpt>
      <trkpt lat="45.7922562" lon="9.6685249">
        <ele>308.7204590</ele>
        <time>2009-01-31T09:22:56Z</time>
      </trkpt>
      <trkpt lat="45.7921971" lon="9.6687173">
        <ele>308.7204590</ele>
        <time>2009-01-31T09:23:02Z</time>
      </trkpt>
      <trkpt lat="45.7922330" lon="9.6690948">
        <ele>306.3172607</ele>
        <time>2009-01-31T09:23:12Z</time>
      </trkpt>
      <trkpt lat="45.7923958" lon="9.6695443">
        <ele>306.3172607</ele>
        <time>2009-01-31T09:23:23Z</time>
      </trkpt>
      <trkpt lat="45.7926585" lon="9.6699537">
        <ele>306.7978516</ele>
        <time>2009-01-31T09:23:35Z</time>
      </trkpt>
      <trkpt lat="45.7931107" lon="9.6701958">
        <ele>306.7978516</ele>
        <time>2009-01-31T09:23:49Z</time>
      </trkpt>
      <trkpt lat="45.7934832" lon="9.6703500">
        <ele>306.7978516</ele>
        <time>2009-01-31T09:24:00Z</time>
      </trkpt>
      <trkpt lat="45.7939402" lon="9.6703293">
        <ele>307.7592773</ele>
        <time>2009-01-31T09:24:15Z</time>
      </trkpt>
      <trkpt lat="45.7940153" lon="9.6699245">
        <ele>310.6430664</ele>
        <time>2009-01-31T09:24:28Z</time>
      </trkpt>
      <trkpt lat="45.7940386" lon="9.6698890">
        <ele>310.6430664</ele>
        <time>2009-01-31T09:24:34Z</time>
      </trkpt>
      <trkpt lat="45.7940679" lon="9.6698880">
        <ele>310.6430664</ele>
        <time>2009-01-31T09:24:37Z</time>
      </trkpt>
      <trkpt lat="45.7941865" lon="9.6699088">
        <ele>311.1237793</ele>
        <time>2009-01-31T09:24:50Z</time>
      </trkpt>
      <trkpt lat="45.7942676" lon="9.6699559">
        <ele>311.1237793</ele>
        <time>2009-01-31T09:24:56Z</time>
      </trkpt>
      <trkpt lat="45.7943976" lon="9.6700074">
        <ele>311.1237793</ele>
        <time>2009-01-31T09:25:07Z</time>
      </trkpt>
      <trkpt lat="45.7944204" lon="9.6700200">
        <ele>311.1237793</ele>
        <time>2009-01-31T09:25:09Z</time>
      </trkpt>
      <trkpt lat="45.7944390" lon="9.6700237">
        <ele>311.1237793</ele>
        <time>2009-01-31T09:25:11Z</time>
      </trkpt>
      <trkpt lat="45.7945686" lon="9.6700510">
        <ele>311.6044922</ele>
        <time>2009-01-31T09:25:22Z</time>
      </trkpt>
      <trkpt lat="45.7946469" lon="9.6700625">
        <ele>311.6044922</ele>
        <time>2009-01-31T09:25:32Z</time>
      </trkpt>
      <trkpt lat="45.7946974" lon="9.6700788">
        <ele>311.6044922</ele>
        <time>2009-01-31T09:25:37Z</time>
      </trkpt>
      <trkpt lat="45.7947333" lon="9.6700934">
        <ele>311.6044922</ele>
        <time>2009-01-31T09:25:40Z</time>
      </trkpt>
      <trkpt lat="45.7949759" lon="9.6700921">
        <ele>311.6044922</ele>
        <time>2009-01-31T09:25:52Z</time>
      </trkpt>
      <trkpt lat="45.7951117" lon="9.6699937">
        <ele>312.5657959</ele>
        <time>2009-01-31T09:26:03Z</time>
      </trkpt>
      <trkpt lat="45.7951912" lon="9.6700773">
        <ele>312.0852051</ele>
        <time>2009-01-31T09:26:10Z</time>
      </trkpt>
      <trkpt lat="45.7955458" lon="9.6699382">
        <ele>312.0852051</ele>
        <time>2009-01-31T09:26:22Z</time>
      </trkpt>
      <trkpt lat="45.7960639" lon="9.6698392">
        <ele>312.5657959</ele>
        <time>2009-01-31T09:26:39Z</time>
      </trkpt>
      <trkpt lat="45.7966277" lon="9.6697516">
        <ele>313.0465088</ele>
        <time>2009-01-31T09:26:57Z</time>
      </trkpt>
      <trkpt lat="45.7970058" lon="9.6696952">
        <ele>313.0465088</ele>
        <time>2009-01-31T09:27:09Z</time>
      </trkpt>
      <trkpt lat="45.7976103" lon="9.6696310">
        <ele>313.5272217</ele>
        <time>2009-01-31T09:27:26Z</time>
      </trkpt>
      <trkpt lat="45.7979269" lon="9.6695885">
        <ele>314.0078125</ele>
        <time>2009-01-31T09:27:39Z</time>
      </trkpt>
      <trkpt lat="45.7980965" lon="9.6695706">
        <ele>314.0078125</ele>
        <time>2009-01-31T09:27:49Z</time>
      </trkpt>
      <trkpt lat="45.7984666" lon="9.6695275">
        <ele>314.0078125</ele>
        <time>2009-01-31T09:28:04Z</time>
      </trkpt>
      <trkpt lat="45.7988587" lon="9.6695212">
        <ele>314.0078125</ele>
        <time>2009-01-31T09:28:18Z</time>
      </trkpt>
      <trkpt lat="45.7992756" lon="9.6695000">
        <ele>314.0078125</ele>
        <time>2009-01-31T09:28:33Z</time>
      </trkpt>
      <trkpt lat="45.7997476" lon="9.6694994">
        <ele>314.4884033</ele>
        <time>2009-01-31T09:28:49Z</time>
      </trkpt>
      <trkpt lat="45.8001708" lon="9.6696613">
        <ele>314.4884033</ele>
        <time>2009-01-31T09:29:01Z</time>
      </trkpt>
      <trkpt lat="45.8007579" lon="9.6699247">
        <ele>314.4884033</ele>
        <time>2009-01-31T09:29:14Z</time>
      </trkpt>
      <trkpt lat="45.8010388" lon="9.6699979">
        <ele>314.4884033</ele>
        <time>2009-01-31T09:29:20Z</time>
      </trkpt>
      <trkpt lat="45.8011260" lon="9.6700356">
        <ele>314.4884033</ele>
        <time>2009-01-31T09:29:22Z</time>
      </trkpt>
      <trkpt lat="45.8013156" lon="9.6700870">
        <ele>314.4884033</ele>
        <time>2009-01-31T09:29:26Z</time>
      </trkpt>
      <trkpt lat="45.8014055" lon="9.6701407">
        <ele>314.0078125</ele>
        <time>2009-01-31T09:29:28Z</time>
      </trkpt>
      <trkpt lat="45.8016187" lon="9.6702515">
        <ele>314.4884033</ele>
        <time>2009-01-31T09:29:33Z</time>
      </trkpt>
      <trkpt lat="45.8018273" lon="9.6703967">
        <ele>314.4884033</ele>
        <time>2009-01-31T09:29:38Z</time>
      </trkpt>
      <trkpt lat="45.8021822" lon="9.6707515">
        <ele>314.4884033</ele>
        <time>2009-01-31T09:29:47Z</time>
      </trkpt>
      <trkpt lat="45.8028898" lon="9.6713897">
        <ele>314.9691162</ele>
        <time>2009-01-31T09:30:04Z</time>
      </trkpt>
      <trkpt lat="45.8036053" lon="9.6715690">
        <ele>314.9691162</ele>
        <time>2009-01-31T09:30:18Z</time>
      </trkpt>
      <trkpt lat="45.8036553" lon="9.6715838">
        <ele>314.9691162</ele>
        <time>2009-01-31T09:30:19Z</time>
      </trkpt>
      <trkpt lat="45.8038662" lon="9.6717340">
        <ele>315.4498291</ele>
        <time>2009-01-31T09:30:24Z</time>
      </trkpt>
      <trkpt lat="45.8044190" lon="9.6724838">
        <ele>316.8917236</ele>
        <time>2009-01-31T09:30:40Z</time>
      </trkpt>
      <trkpt lat="45.8047679" lon="9.6735305">
        <ele>318.3336182</ele>
        <time>2009-01-31T09:30:57Z</time>
      </trkpt>
      <trkpt lat="45.8051258" lon="9.6746772">
        <ele>319.2950439</ele>
        <time>2009-01-31T09:31:15Z</time>
      </trkpt>
      <trkpt lat="45.8053960" lon="9.6755366">
        <ele>321.2177734</ele>
        <time>2009-01-31T09:31:29Z</time>
      </trkpt>
      <trkpt lat="45.8057599" lon="9.6766348">
        <ele>321.6983643</ele>
        <time>2009-01-31T09:31:47Z</time>
      </trkpt>
      <trkpt lat="45.8061033" lon="9.6773442">
        <ele>321.6983643</ele>
        <time>2009-01-31T09:31:59Z</time>
      </trkpt>
      <trkpt lat="45.8063501" lon="9.6775782">
        <ele>321.2177734</ele>
        <time>2009-01-31T09:32:05Z</time>
      </trkpt>
      <trkpt lat="45.8065183" lon="9.6776652">
        <ele>321.6983643</ele>
        <time>2009-01-31T09:32:09Z</time>
      </trkpt>
      <trkpt lat="45.8068271" lon="9.6778307">
        <ele>322.6596680</ele>
        <time>2009-01-31T09:32:19Z</time>
      </trkpt>
      <trkpt lat="45.8068834" lon="9.6777969">
        <ele>322.1789551</ele>
        <time>2009-01-31T09:32:23Z</time>
      </trkpt>
      <trkpt lat="45.8072251" lon="9.6782056">
        <ele>322.1789551</ele>
        <time>2009-01-31T09:32:36Z</time>
      </trkpt>
      <trkpt lat="45.8072396" lon="9.6783164">
        <ele>322.1789551</ele>
        <time>2009-01-31T09:32:38Z</time>
      </trkpt>
      <trkpt lat="45.8070475" lon="9.6788954">
        <ele>320.7370605</ele>
        <time>2009-01-31T09:32:50Z</time>
      </trkpt>
      <trkpt lat="45.8070131" lon="9.6791989">
        <ele>321.2177734</ele>
        <time>2009-01-31T09:32:55Z</time>
      </trkpt>
      <trkpt lat="45.8070312" lon="9.6794473">
        <ele>320.7370605</ele>
        <time>2009-01-31T09:32:59Z</time>
      </trkpt>
      <trkpt lat="45.8070643" lon="9.6795711">
        <ele>320.7370605</ele>
        <time>2009-01-31T09:33:01Z</time>
      </trkpt>
      <trkpt lat="45.8071409" lon="9.6797208">
        <ele>321.2177734</ele>
        <time>2009-01-31T09:33:04Z</time>
      </trkpt>
      <trkpt lat="45.8075771" lon="9.6801674">
        <ele>323.6209717</ele>
        <time>2009-01-31T09:33:19Z</time>
      </trkpt>
      <trkpt lat="45.8077923" lon="9.6803921">
        <ele>324.5822754</ele>
        <time>2009-01-31T09:33:29Z</time>
      </trkpt>
      <trkpt lat="45.8078844" lon="9.6803199">
        <ele>325.0629883</ele>
        <time>2009-01-31T09:33:37Z</time>
      </trkpt>
      <trkpt lat="45.8079179" lon="9.6803295">
        <ele>325.0629883</ele>
        <time>2009-01-31T09:33:43Z</time>
      </trkpt>
      <trkpt lat="45.8080076" lon="9.6803204">
        <ele>324.5822754</ele>
        <time>2009-01-31T09:33:47Z</time>
      </trkpt>
      <trkpt lat="45.8084539" lon="9.6801206">
        <ele>324.1015625</ele>
        <time>2009-01-31T09:33:59Z</time>
      </trkpt>
      <trkpt lat="45.8087049" lon="9.6800321">
        <ele>324.5822754</ele>
        <time>2009-01-31T09:34:05Z</time>
      </trkpt>
      <trkpt lat="45.8090769" lon="9.6797975">
        <ele>325.5435791</ele>
        <time>2009-01-31T09:34:17Z</time>
      </trkpt>
      <trkpt lat="45.8092366" lon="9.6797081">
        <ele>325.0629883</ele>
        <time>2009-01-31T09:34:25Z</time>
      </trkpt>
      <trkpt lat="45.8092510" lon="9.6796747">
        <ele>325.0629883</ele>
        <time>2009-01-31T09:34:35Z</time>
      </trkpt>
      <trkpt lat="45.8093821" lon="9.6796688">
        <ele>324.1015625</ele>
        <time>2009-01-31T09:34:42Z</time>
      </trkpt>
      <trkpt lat="45.8100961" lon="9.6793058">
        <ele>322.1789551</ele>
        <time>2009-01-31T09:35:00Z</time>
      </trkpt>
      <trkpt lat="45.8107579" lon="9.6786887">
        <ele>320.7370605</ele>
        <time>2009-01-31T09:35:16Z</time>
      </trkpt>
      <trkpt lat="45.8112728" lon="9.6779767">
        <ele>321.2177734</ele>
        <time>2009-01-31T09:35:31Z</time>
      </trkpt>
      <trkpt lat="45.8118949" lon="9.6772452">
        <ele>321.6983643</ele>
        <time>2009-01-31T09:35:48Z</time>
      </trkpt>
      <trkpt lat="45.8126138" lon="9.6764778">
        <ele>322.6596680</ele>
        <time>2009-01-31T09:36:06Z</time>
      </trkpt>
      <trkpt lat="45.8133183" lon="9.6758039">
        <ele>324.5822754</ele>
        <time>2009-01-31T09:36:23Z</time>
      </trkpt>
      <trkpt lat="45.8140353" lon="9.6752114">
        <ele>326.5048828</ele>
        <time>2009-01-31T09:36:40Z</time>
      </trkpt>
      <trkpt lat="45.8141853" lon="9.6750710">
        <ele>326.9855957</ele>
        <time>2009-01-31T09:36:44Z</time>
      </trkpt>
      <trkpt lat="45.8144156" lon="9.6748315">
        <ele>326.9855957</ele>
        <time>2009-01-31T09:36:50Z</time>
      </trkpt>
      <trkpt lat="45.8149407" lon="9.6741420">
        <ele>325.5435791</ele>
        <time>2009-01-31T09:37:03Z</time>
      </trkpt>
      <trkpt lat="45.8151030" lon="9.6739545">
        <ele>325.5435791</ele>
        <time>2009-01-31T09:37:07Z</time>
      </trkpt>
      <trkpt lat="45.8152734" lon="9.6737844">
        <ele>325.0629883</ele>
        <time>2009-01-31T09:37:11Z</time>
      </trkpt>
      <trkpt lat="45.8157936" lon="9.6736170">
        <ele>326.0241699</ele>
        <time>2009-01-31T09:37:22Z</time>
      </trkpt>
      <trkpt lat="45.8161881" lon="9.6736071">
        <ele>327.4661865</ele>
        <time>2009-01-31T09:37:35Z</time>
      </trkpt>
      <trkpt lat="45.8164044" lon="9.6736054">
        <ele>327.4661865</ele>
        <time>2009-01-31T09:37:48Z</time>
      </trkpt>
      <trkpt lat="45.8164501" lon="9.6736381">
        <ele>327.4661865</ele>
        <time>2009-01-31T09:38:03Z</time>
      </trkpt>
      <trkpt lat="45.8166871" lon="9.6736812">
        <ele>326.5048828</ele>
        <time>2009-01-31T09:40:44Z</time>
      </trkpt>
      <trkpt lat="45.8173285" lon="9.6737877">
        <ele>326.0241699</ele>
        <time>2009-01-31T09:40:58Z</time>
      </trkpt>
      <trkpt lat="45.8174216" lon="9.6737890">
        <ele>326.0241699</ele>
        <time>2009-01-31T09:41:00Z</time>
      </trkpt>
      <trkpt lat="45.8181144" lon="9.6741470">
        <ele>326.9855957</ele>
        <time>2009-01-31T09:41:16Z</time>
      </trkpt>
      <trkpt lat="45.8188834" lon="9.6747479">
        <ele>328.9083252</ele>
        <time>2009-01-31T09:41:34Z</time>
      </trkpt>
      <trkpt lat="45.8193442" lon="9.6750710">
        <ele>327.9467773</ele>
        <time>2009-01-31T09:41:46Z</time>
      </trkpt>
      <trkpt lat="45.8198993" lon="9.6755748">
        <ele>328.4276123</ele>
        <time>2009-01-31T09:41:57Z</time>
      </trkpt>
      <trkpt lat="45.8206065" lon="9.6760926">
        <ele>329.3889160</ele>
        <time>2009-01-31T09:42:13Z</time>
      </trkpt>
      <trkpt lat="45.8210250" lon="9.6763296">
        <ele>329.8695068</ele>
        <time>2009-01-31T09:42:22Z</time>
      </trkpt>
      <trkpt lat="45.8218154" lon="9.6763890">
        <ele>330.3502197</ele>
        <time>2009-01-31T09:42:38Z</time>
      </trkpt>
      <trkpt lat="45.8226490" lon="9.6761765">
        <ele>332.7535400</ele>
        <time>2009-01-31T09:42:55Z</time>
      </trkpt>
      <trkpt lat="45.8231243" lon="9.6759824">
        <ele>332.7535400</ele>
        <time>2009-01-31T09:43:07Z</time>
      </trkpt>
      <trkpt lat="45.8236726" lon="9.6757433">
        <ele>333.7147217</ele>
        <time>2009-01-31T09:43:22Z</time>
      </trkpt>
      <trkpt lat="45.8240578" lon="9.6755118">
        <ele>333.2341309</ele>
        <time>2009-01-31T09:43:34Z</time>
      </trkpt>
      <trkpt lat="45.8241666" lon="9.6754452">
        <ele>332.7535400</ele>
        <time>2009-01-31T09:43:37Z</time>
      </trkpt>
      <trkpt lat="45.8243368" lon="9.6753673">
        <ele>332.7535400</ele>
        <time>2009-01-31T09:43:41Z</time>
      </trkpt>
      <trkpt lat="45.8245240" lon="9.6753250">
        <ele>334.1954346</ele>
        <time>2009-01-31T09:43:47Z</time>
      </trkpt>
      <trkpt lat="45.8250190" lon="9.6746796">
        <ele>334.1954346</ele>
        <time>2009-01-31T09:44:04Z</time>
      </trkpt>
      <trkpt lat="45.8253496" lon="9.6740843">
        <ele>334.6761475</ele>
        <time>2009-01-31T09:44:18Z</time>
      </trkpt>
      <trkpt lat="45.8255118" lon="9.6740622">
        <ele>337.5600586</ele>
        <time>2009-01-31T09:44:24Z</time>
      </trkpt>
      <trkpt lat="45.8255956" lon="9.6740673">
        <ele>338.5214844</ele>
        <time>2009-01-31T09:44:29Z</time>
      </trkpt>
      <trkpt lat="45.8256696" lon="9.6740564">
        <ele>340.4440918</ele>
        <time>2009-01-31T09:44:34Z</time>
      </trkpt>
      <trkpt lat="45.8256907" lon="9.6740526">
        <ele>340.4440918</ele>
        <time>2009-01-31T09:44:35Z</time>
      </trkpt>
      <trkpt lat="45.8257957" lon="9.6740466">
        <ele>340.9246826</ele>
        <time>2009-01-31T09:44:40Z</time>
      </trkpt>
      <trkpt lat="45.8258755" lon="9.6742385">
        <ele>341.8859863</ele>
        <time>2009-01-31T09:44:52Z</time>
      </trkpt>
      <trkpt lat="45.8263028" lon="9.6740966">
        <ele>342.3666992</ele>
        <time>2009-01-31T09:45:06Z</time>
      </trkpt>
      <trkpt lat="45.8263901" lon="9.6736250">
        <ele>341.4052734</ele>
        <time>2009-01-31T09:45:17Z</time>
      </trkpt>
      <trkpt lat="45.8269370" lon="9.6727540">
        <ele>342.3666992</ele>
        <time>2009-01-31T09:45:37Z</time>
      </trkpt>
      <trkpt lat="45.8273886" lon="9.6718265">
        <ele>342.8472900</ele>
        <time>2009-01-31T09:45:54Z</time>
      </trkpt>
      <trkpt lat="45.8279532" lon="9.6707205">
        <ele>342.8472900</ele>
        <time>2009-01-31T09:46:13Z</time>
      </trkpt>
      <trkpt lat="45.8285096" lon="9.6696609">
        <ele>343.3278809</ele>
        <time>2009-01-31T09:46:31Z</time>
      </trkpt>
      <trkpt lat="45.8291775" lon="9.6684949">
        <ele>343.3278809</ele>
        <time>2009-01-31T09:46:52Z</time>
      </trkpt>
      <trkpt lat="45.8298768" lon="9.6679796">
        <ele>344.2894287</ele>
        <time>2009-01-31T09:47:08Z</time>
      </trkpt>
      <trkpt lat="45.8299740" lon="9.6679540">
        <ele>344.2894287</ele>
        <time>2009-01-31T09:47:10Z</time>
      </trkpt>
      <trkpt lat="45.8304428" lon="9.6679145">
        <ele>345.2506104</ele>
        <time>2009-01-31T09:47:22Z</time>
      </trkpt>
      <trkpt lat="45.8309241" lon="9.6679039">
        <ele>346.2120361</ele>
        <time>2009-01-31T09:47:33Z</time>
      </trkpt>
      <trkpt lat="45.8315012" lon="9.6679568">
        <ele>348.1346436</ele>
        <time>2009-01-31T09:47:48Z</time>
      </trkpt>
      <trkpt lat="45.8319872" lon="9.6678980">
        <ele>348.6152344</ele>
        <time>2009-01-31T09:48:02Z</time>
      </trkpt>
      <trkpt lat="45.8325262" lon="9.6675736">
        <ele>349.0958252</ele>
        <time>2009-01-31T09:48:17Z</time>
      </trkpt>
      <trkpt lat="45.8329797" lon="9.6674676">
        <ele>350.0572510</ele>
        <time>2009-01-31T09:48:30Z</time>
      </trkpt>
      <trkpt lat="45.8333496" lon="9.6674456">
        <ele>350.0572510</ele>
        <time>2009-01-31T09:48:40Z</time>
      </trkpt>
      <trkpt lat="45.8339676" lon="9.6673318">
        <ele>349.5765381</ele>
        <time>2009-01-31T09:48:55Z</time>
      </trkpt>
      <trkpt lat="45.8343071" lon="9.6672576">
        <ele>349.5765381</ele>
        <time>2009-01-31T09:49:03Z</time>
      </trkpt>
      <trkpt lat="45.8349486" lon="9.6671604">
        <ele>350.5378418</ele>
        <time>2009-01-31T09:49:18Z</time>
      </trkpt>
      <trkpt lat="45.8351038" lon="9.6671488">
        <ele>350.5378418</ele>
        <time>2009-01-31T09:49:24Z</time>
      </trkpt>
      <trkpt lat="45.8352746" lon="9.6671135">
        <ele>350.0572510</ele>
        <time>2009-01-31T09:49:29Z</time>
      </trkpt>
      <trkpt lat="45.8359181" lon="9.6670436">
        <ele>351.0184326</ele>
        <time>2009-01-31T09:49:42Z</time>
      </trkpt>
      <trkpt lat="45.8366807" lon="9.6668856">
        <ele>352.9411621</ele>
        <time>2009-01-31T09:49:59Z</time>
      </trkpt>
      <trkpt lat="45.8372852" lon="9.6667762">
        <ele>353.9025879</ele>
        <time>2009-01-31T09:50:14Z</time>
      </trkpt>
      <trkpt lat="45.8379111" lon="9.6667633">
        <ele>355.3444824</ele>
        <time>2009-01-31T09:50:30Z</time>
      </trkpt>
      <trkpt lat="45.8382831" lon="9.6668506">
        <ele>356.3057861</ele>
        <time>2009-01-31T09:50:43Z</time>
      </trkpt>
      <trkpt lat="45.8385349" lon="9.6669966">
        <ele>356.3057861</ele>
        <time>2009-01-31T09:50:52Z</time>
      </trkpt>
      <trkpt lat="45.8388945" lon="9.6671418">
        <ele>357.7478027</ele>
        <time>2009-01-31T09:51:04Z</time>
      </trkpt>
      <trkpt lat="45.8391986" lon="9.6673037">
        <ele>357.7478027</ele>
        <time>2009-01-31T09:51:16Z</time>
      </trkpt>
      <trkpt lat="45.8395311" lon="9.6674500">
        <ele>357.2670898</ele>
        <time>2009-01-31T09:51:29Z</time>
      </trkpt>
      <trkpt lat="45.8399270" lon="9.6676500">
        <ele>356.7863770</ele>
        <time>2009-01-31T09:51:44Z</time>
      </trkpt>
      <trkpt lat="45.8399639" lon="9.6676749">
        <ele>357.2670898</ele>
        <time>2009-01-31T09:51:45Z</time>
      </trkpt>
      <trkpt lat="45.8402000" lon="9.6677787">
        <ele>357.2670898</ele>
        <time>2009-01-31T09:51:54Z</time>
      </trkpt>
      <trkpt lat="45.8404186" lon="9.6679127">
        <ele>357.2670898</ele>
        <time>2009-01-31T09:52:05Z</time>
      </trkpt>
      <trkpt lat="45.8405937" lon="9.6680031">
        <ele>357.2670898</ele>
        <time>2009-01-31T09:52:14Z</time>
      </trkpt>
      <trkpt lat="45.8408681" lon="9.6680661">
        <ele>357.2670898</ele>
        <time>2009-01-31T09:52:26Z</time>
      </trkpt>
      <trkpt lat="45.8412234" lon="9.6682155">
        <ele>357.7478027</ele>
        <time>2009-01-31T09:52:38Z</time>
      </trkpt>
      <trkpt lat="45.8415285" lon="9.6682998">
        <ele>358.2283936</ele>
        <time>2009-01-31T09:52:51Z</time>
      </trkpt>
      <trkpt lat="45.8417480" lon="9.6683501">
        <ele>358.7089844</ele>
        <time>2009-01-31T09:53:01Z</time>
      </trkpt>
      <trkpt lat="45.8421263" lon="9.6684178">
        <ele>359.6704102</ele>
        <time>2009-01-31T09:53:16Z</time>
      </trkpt>
      <trkpt lat="45.8425037" lon="9.6684880">
        <ele>360.1511230</ele>
        <time>2009-01-31T09:53:30Z</time>
      </trkpt>
      <trkpt lat="45.8429148" lon="9.6687416">
        <ele>360.6317139</ele>
        <time>2009-01-31T09:53:43Z</time>
      </trkpt>
      <trkpt lat="45.8431520" lon="9.6688142">
        <ele>361.1124268</ele>
        <time>2009-01-31T09:53:54Z</time>
      </trkpt>
      <trkpt lat="45.8434875" lon="9.6689120">
        <ele>361.1124268</ele>
        <time>2009-01-31T09:54:07Z</time>
      </trkpt>
      <trkpt lat="45.8439701" lon="9.6690638">
        <ele>362.5543213</ele>
        <time>2009-01-31T09:54:25Z</time>
      </trkpt>
      <trkpt lat="45.8443405" lon="9.6691275">
        <ele>363.0350342</ele>
        <time>2009-01-31T09:54:38Z</time>
      </trkpt>
      <trkpt lat="45.8446240" lon="9.6690877">
        <ele>363.5157471</ele>
        <time>2009-01-31T09:54:49Z</time>
      </trkpt>
      <trkpt lat="45.8447657" lon="9.6690669">
        <ele>363.9963379</ele>
        <time>2009-01-31T09:54:57Z</time>
      </trkpt>
      <trkpt lat="45.8443882" lon="9.6688032">
        <ele>367.3609619</ele>
        <time>2009-01-31T09:55:16Z</time>
      </trkpt>
      <trkpt lat="45.8443252" lon="9.6687616">
        <ele>365.9189453</ele>
        <time>2009-01-31T09:55:19Z</time>
      </trkpt>
      <trkpt lat="45.8441782" lon="9.6686644">
        <ele>365.4383545</ele>
        <time>2009-01-31T09:55:26Z</time>
      </trkpt>
      <trkpt lat="45.8462439" lon="9.6689369">
        <ele>365.9189453</ele>
        <time>2009-01-31T09:55:41Z</time>
      </trkpt>
      <trkpt lat="45.8467697" lon="9.6688624">
        <ele>367.3609619</ele>
        <time>2009-01-31T09:55:58Z</time>
      </trkpt>
      <trkpt lat="45.8471991" lon="9.6688476">
        <ele>367.8415527</ele>
        <time>2009-01-31T09:56:11Z</time>
      </trkpt>
      <trkpt lat="45.8475827" lon="9.6687095">
        <ele>368.8029785</ele>
        <time>2009-01-31T09:56:25Z</time>
      </trkpt>
      <trkpt lat="45.8476995" lon="9.6685437">
        <ele>367.8415527</ele>
        <time>2009-01-31T09:56:31Z</time>
      </trkpt>
      <trkpt lat="45.8480031" lon="9.6684528">
        <ele>368.8029785</ele>
        <time>2009-01-31T09:56:44Z</time>
      </trkpt>
      <trkpt lat="45.8485351" lon="9.6680899">
        <ele>368.3222656</ele>
        <time>2009-01-31T09:56:58Z</time>
      </trkpt>
      <trkpt lat="45.8486265" lon="9.6680296">
        <ele>370.2448730</ele>
        <time>2009-01-31T09:57:01Z</time>
      </trkpt>
      <trkpt lat="45.8489204" lon="9.6678459">
        <ele>372.6481934</ele>
        <time>2009-01-31T09:57:13Z</time>
      </trkpt>
      <trkpt lat="45.8492621" lon="9.6674462">
        <ele>373.1289063</ele>
        <time>2009-01-31T09:57:25Z</time>
      </trkpt>
      <trkpt lat="45.8494018" lon="9.6672815">
        <ele>371.6868896</ele>
        <time>2009-01-31T09:57:29Z</time>
      </trkpt>
      <trkpt lat="45.8497341" lon="9.6668528">
        <ele>367.8415527</ele>
        <time>2009-01-31T09:57:37Z</time>
      </trkpt>
      <trkpt lat="45.8499389" lon="9.6665416">
        <ele>364.4769287</ele>
        <time>2009-01-31T09:57:41Z</time>
      </trkpt>
      <trkpt lat="45.8500624" lon="9.6663802">
        <ele>362.5543213</ele>
        <time>2009-01-31T09:57:43Z</time>
      </trkpt>
      <trkpt lat="45.8502878" lon="9.6661793">
        <ele>367.3609619</ele>
        <time>2009-01-31T09:57:47Z</time>
      </trkpt>
      <trkpt lat="45.8504507" lon="9.6660480">
        <ele>370.2448730</ele>
        <time>2009-01-31T09:57:53Z</time>
      </trkpt>
      <trkpt lat="45.8508381" lon="9.6656703">
        <ele>366.8802490</ele>
        <time>2009-01-31T09:58:05Z</time>
      </trkpt>
      <trkpt lat="45.8508721" lon="9.6656444">
        <ele>367.3609619</ele>
        <time>2009-01-31T09:58:06Z</time>
      </trkpt>
      <trkpt lat="45.8511012" lon="9.6654728">
        <ele>366.8802490</ele>
        <time>2009-01-31T09:58:15Z</time>
      </trkpt>
      <trkpt lat="45.8511244" lon="9.6654545">
        <ele>366.8802490</ele>
        <time>2009-01-31T09:58:16Z</time>
      </trkpt>
      <trkpt lat="45.8514714" lon="9.6651998">
        <ele>370.2448730</ele>
        <time>2009-01-31T09:58:30Z</time>
      </trkpt>
      <trkpt lat="45.8518314" lon="9.6650149">
        <ele>373.1289063</ele>
        <time>2009-01-31T09:58:43Z</time>
      </trkpt>
      <trkpt lat="45.8522351" lon="9.6647710">
        <ele>374.5708008</ele>
        <time>2009-01-31T09:58:59Z</time>
      </trkpt>
      <trkpt lat="45.8525105" lon="9.6647704">
        <ele>377.9354248</ele>
        <time>2009-01-31T09:59:10Z</time>
      </trkpt>
      <trkpt lat="45.8528304" lon="9.6648842">
        <ele>378.4161377</ele>
        <time>2009-01-31T09:59:22Z</time>
      </trkpt>
      <trkpt lat="45.8533166" lon="9.6647203">
        <ele>379.8580322</ele>
        <time>2009-01-31T09:59:37Z</time>
      </trkpt>
      <trkpt lat="45.8538019" lon="9.6645447">
        <ele>380.3387451</ele>
        <time>2009-01-31T09:59:51Z</time>
      </trkpt>
      <trkpt lat="45.8543121" lon="9.6643908">
        <ele>380.8194580</ele>
        <time>2009-01-31T10:00:06Z</time>
      </trkpt>
      <trkpt lat="45.8546865" lon="9.6642793">
        <ele>380.8194580</ele>
        <time>2009-01-31T10:00:20Z</time>
      </trkpt>
      <trkpt lat="45.8550060" lon="9.6641889">
        <ele>380.8194580</ele>
        <time>2009-01-31T10:00:32Z</time>
      </trkpt>
      <trkpt lat="45.8555100" lon="9.6640201">
        <ele>380.3387451</ele>
        <time>2009-01-31T10:00:48Z</time>
      </trkpt>
      <trkpt lat="45.8555522" lon="9.6639594">
        <ele>380.8194580</ele>
        <time>2009-01-31T10:00:51Z</time>
      </trkpt>
      <trkpt lat="45.8554797" lon="9.6637790">
        <ele>380.8194580</ele>
        <time>2009-01-31T10:00:56Z</time>
      </trkpt>
      <trkpt lat="45.8554797" lon="9.6637790">
        <ele>381.3000488</ele>
        <time>2009-01-31T10:01:27Z</time>
      </trkpt>
      <trkpt lat="45.8554797" lon="9.6637790">
        <ele>380.8194580</ele>
        <time>2009-01-31T10:01:33Z</time>
      </trkpt>
      <trkpt lat="45.8574055" lon="9.6630943">
        <ele>380.8194580</ele>
        <time>2009-01-31T10:01:48Z</time>
      </trkpt>
      <trkpt lat="45.8578380" lon="9.6627435">
        <ele>381.3000488</ele>
        <time>2009-01-31T10:02:02Z</time>
      </trkpt>
      <trkpt lat="45.8582294" lon="9.6626036">
        <ele>381.3000488</ele>
        <time>2009-01-31T10:02:16Z</time>
      </trkpt>
      <trkpt lat="45.8588390" lon="9.6620778">
        <ele>380.3387451</ele>
        <time>2009-01-31T10:02:27Z</time>
      </trkpt>
      <trkpt lat="45.8592819" lon="9.6625238">
        <ele>380.8194580</ele>
        <time>2009-01-31T10:02:34Z</time>
      </trkpt>
      <trkpt lat="45.8594882" lon="9.6625866">
        <ele>380.8194580</ele>
        <time>2009-01-31T10:02:38Z</time>
      </trkpt>
      <trkpt lat="45.8598359" lon="9.6627634">
        <ele>380.8194580</ele>
        <time>2009-01-31T10:02:43Z</time>
      </trkpt>
      <trkpt lat="45.8599466" lon="9.6627404">
        <ele>380.8194580</ele>
        <time>2009-01-31T10:02:45Z</time>
      </trkpt>
      <trkpt lat="45.8606557" lon="9.6622217">
        <ele>381.3000488</ele>
        <time>2009-01-31T10:03:00Z</time>
      </trkpt>
      <trkpt lat="45.8608332" lon="9.6619370">
        <ele>381.7806396</ele>
        <time>2009-01-31T10:03:05Z</time>
      </trkpt>
      <trkpt lat="45.8609780" lon="9.6615471">
        <ele>381.7806396</ele>
        <time>2009-01-31T10:03:11Z</time>
      </trkpt>
      <trkpt lat="45.8610230" lon="9.6614160">
        <ele>381.7806396</ele>
        <time>2009-01-31T10:03:13Z</time>
      </trkpt>
      <trkpt lat="45.8614069" lon="9.6604401">
        <ele>382.7420654</ele>
        <time>2009-01-31T10:03:29Z</time>
      </trkpt>
      <trkpt lat="45.8620518" lon="9.6597266">
        <ele>383.2226563</ele>
        <time>2009-01-31T10:03:45Z</time>
      </trkpt>
      <trkpt lat="45.8626822" lon="9.6590311">
        <ele>385.6259766</ele>
        <time>2009-01-31T10:04:02Z</time>
      </trkpt>
      <trkpt lat="45.8631968" lon="9.6585224">
        <ele>385.6259766</ele>
        <time>2009-01-31T10:04:16Z</time>
      </trkpt>
      <trkpt lat="45.8637833" lon="9.6580467">
        <ele>386.5874023</ele>
        <time>2009-01-31T10:04:33Z</time>
      </trkpt>
      <trkpt lat="45.8643175" lon="9.6576873">
        <ele>387.5485840</ele>
        <time>2009-01-31T10:04:48Z</time>
      </trkpt>
      <trkpt lat="45.8649231" lon="9.6573355">
        <ele>388.0292969</ele>
        <time>2009-01-31T10:05:04Z</time>
      </trkpt>
      <trkpt lat="45.8652580" lon="9.6571180">
        <ele>388.5100098</ele>
        <time>2009-01-31T10:05:13Z</time>
      </trkpt>
      <trkpt lat="45.8658897" lon="9.6566948">
        <ele>389.4711914</ele>
        <time>2009-01-31T10:05:30Z</time>
      </trkpt>
      <trkpt lat="45.8663056" lon="9.6564342">
        <ele>389.9519043</ele>
        <time>2009-01-31T10:05:41Z</time>
      </trkpt>
      <trkpt lat="45.8664797" lon="9.6562442">
        <ele>389.9519043</ele>
        <time>2009-01-31T10:05:46Z</time>
      </trkpt>
      <trkpt lat="45.8667429" lon="9.6557496">
        <ele>390.4326172</ele>
        <time>2009-01-31T10:05:56Z</time>
      </trkpt>
      <trkpt lat="45.8669453" lon="9.6553989">
        <ele>390.9132080</ele>
        <time>2009-01-31T10:06:04Z</time>
      </trkpt>
      <trkpt lat="45.8670366" lon="9.6551985">
        <ele>390.9132080</ele>
        <time>2009-01-31T10:06:08Z</time>
      </trkpt>
      <trkpt lat="45.8671142" lon="9.6550073">
        <ele>390.9132080</ele>
        <time>2009-01-31T10:06:12Z</time>
      </trkpt>
      <trkpt lat="45.8681698" lon="9.6546692">
        <ele>301.5106201</ele>
        <time>2009-01-31T10:07:21Z</time>
      </trkpt>
      <trkpt lat="45.8678851" lon="9.6544011">
        <ele>303.9139404</ele>
        <time>2009-01-31T10:07:50Z</time>
      </trkpt>
      <trkpt lat="45.8678620" lon="9.6543712">
        <ele>306.7978516</ele>
        <time>2009-01-31T10:08:25Z</time>
      </trkpt>
      <trkpt lat="45.8678292" lon="9.6542989">
        <ele>307.7592773</ele>
        <time>2009-01-31T10:08:37Z</time>
      </trkpt>
      <trkpt lat="45.8678411" lon="9.6541830">
        <ele>307.7592773</ele>
        <time>2009-01-31T10:08:41Z</time>
      </trkpt>
      <trkpt lat="45.8681050" lon="9.6536905">
        <ele>309.2011719</ele>
        <time>2009-01-31T10:08:55Z</time>
      </trkpt>
      <trkpt lat="45.8685459" lon="9.6532394">
        <ele>310.6430664</ele>
        <time>2009-01-31T10:09:10Z</time>
      </trkpt>
      <trkpt lat="45.8688649" lon="9.6529056">
        <ele>312.0852051</ele>
        <time>2009-01-31T10:09:20Z</time>
      </trkpt>
      <trkpt lat="45.8691950" lon="9.6525632">
        <ele>312.5657959</ele>
        <time>2009-01-31T10:09:30Z</time>
      </trkpt>
      <trkpt lat="45.8693524" lon="9.6524666">
        <ele>313.0465088</ele>
        <time>2009-01-31T10:09:34Z</time>
      </trkpt>
      <trkpt lat="45.8699912" lon="9.6520125">
        <ele>314.0078125</ele>
        <time>2009-01-31T10:09:51Z</time>
      </trkpt>
      <trkpt lat="45.8706310" lon="9.6515370">
        <ele>314.9691162</ele>
        <time>2009-01-31T10:10:08Z</time>
      </trkpt>
      <trkpt lat="45.8709115" lon="9.6513277">
        <ele>315.4498291</ele>
        <time>2009-01-31T10:10:16Z</time>
      </trkpt>
      <trkpt lat="45.8715412" lon="9.6509037">
        <ele>316.8917236</ele>
        <time>2009-01-31T10:10:34Z</time>
      </trkpt>
      <trkpt lat="45.8720131" lon="9.6508093">
        <ele>317.3724365</ele>
        <time>2009-01-31T10:10:46Z</time>
      </trkpt>
      <trkpt lat="45.8728294" lon="9.6508343">
        <ele>318.3336182</ele>
        <time>2009-01-31T10:11:05Z</time>
      </trkpt>
      <trkpt lat="45.8735197" lon="9.6509698">
        <ele>319.7756348</ele>
        <time>2009-01-31T10:11:23Z</time>
      </trkpt>
      <trkpt lat="45.8738737" lon="9.6510356">
        <ele>319.7756348</ele>
        <time>2009-01-31T10:11:34Z</time>
      </trkpt>
      <trkpt lat="45.8741286" lon="9.6510531">
        <ele>319.2950439</ele>
        <time>2009-01-31T10:11:42Z</time>
      </trkpt>
      <trkpt lat="45.8747655" lon="9.6510744">
        <ele>318.8143311</ele>
        <time>2009-01-31T10:11:56Z</time>
      </trkpt>
      <trkpt lat="45.8750389" lon="9.6511042">
        <ele>319.7756348</ele>
        <time>2009-01-31T10:12:06Z</time>
      </trkpt>
      <trkpt lat="45.8752870" lon="9.6511811">
        <ele>320.2563477</ele>
        <time>2009-01-31T10:12:18Z</time>
      </trkpt>
      <trkpt lat="45.8756055" lon="9.6512027">
        <ele>320.2563477</ele>
        <time>2009-01-31T10:12:30Z</time>
      </trkpt>
      <trkpt lat="45.8756316" lon="9.6511879">
        <ele>320.7370605</ele>
        <time>2009-01-31T10:12:31Z</time>
      </trkpt>
      <trkpt lat="45.8761415" lon="9.6497613">
        <ele>322.1789551</ele>
        <time>2009-01-31T10:12:51Z</time>
      </trkpt>
      <trkpt lat="45.8765467" lon="9.6516949">
        <ele>322.6596680</ele>
        <time>2009-01-31T10:12:58Z</time>
      </trkpt>
      <trkpt lat="45.8765167" lon="9.6517136">
        <ele>324.1015625</ele>
        <time>2009-01-31T10:13:22Z</time>
      </trkpt>
      <trkpt lat="45.8765418" lon="9.6517065">
        <ele>323.6209717</ele>
        <time>2009-01-31T10:13:28Z</time>
      </trkpt>
      <trkpt lat="45.8768165" lon="9.6517126">
        <ele>325.0629883</ele>
        <time>2009-01-31T10:13:41Z</time>
      </trkpt>
      <trkpt lat="45.8768359" lon="9.6517099">
        <ele>326.0241699</ele>
        <time>2009-01-31T10:13:52Z</time>
      </trkpt>
      <trkpt lat="45.8770193" lon="9.6516557">
        <ele>327.9467773</ele>
        <time>2009-01-31T10:14:18Z</time>
      </trkpt>
      <trkpt lat="45.8771410" lon="9.6516264">
        <ele>328.4276123</ele>
        <time>2009-01-31T10:14:24Z</time>
      </trkpt>
      <trkpt lat="45.8777724" lon="9.6514531">
        <ele>330.3502197</ele>
        <time>2009-01-31T10:14:41Z</time>
      </trkpt>
      <trkpt lat="45.8783188" lon="9.6513552">
        <ele>332.2728271</ele>
        <time>2009-01-31T10:14:56Z</time>
      </trkpt>
      <trkpt lat="45.8788511" lon="9.6511044">
        <ele>334.1954346</ele>
        <time>2009-01-31T10:15:10Z</time>
      </trkpt>
      <trkpt lat="45.8792956" lon="9.6510422">
        <ele>335.6373291</ele>
        <time>2009-01-31T10:15:21Z</time>
      </trkpt>
      <trkpt lat="45.8796813" lon="9.6512014">
        <ele>337.0794678</ele>
        <time>2009-01-31T10:15:32Z</time>
      </trkpt>
      <trkpt lat="45.8798659" lon="9.6513393">
        <ele>338.0407715</ele>
        <time>2009-01-31T10:15:37Z</time>
      </trkpt>
      <trkpt lat="45.8805009" lon="9.6519016">
        <ele>341.8859863</ele>
        <time>2009-01-31T10:15:55Z</time>
      </trkpt>
      <trkpt lat="45.8806765" lon="9.6520577">
        <ele>340.9246826</ele>
        <time>2009-01-31T10:16:00Z</time>
      </trkpt>
      <trkpt lat="45.8810847" lon="9.6522490">
        <ele>341.4052734</ele>
        <time>2009-01-31T10:16:10Z</time>
      </trkpt>
      <trkpt lat="45.8812508" lon="9.6522936">
        <ele>341.4052734</ele>
        <time>2009-01-31T10:16:14Z</time>
      </trkpt>
      <trkpt lat="45.8813402" lon="9.6522964">
        <ele>343.3278809</ele>
        <time>2009-01-31T10:16:16Z</time>
      </trkpt>
      <trkpt lat="45.8815163" lon="9.6523204">
        <ele>342.3666992</ele>
        <time>2009-01-31T10:16:20Z</time>
      </trkpt>
      <trkpt lat="45.8820316" lon="9.6524222">
        <ele>343.3278809</ele>
        <time>2009-01-31T10:16:32Z</time>
      </trkpt>
      <trkpt lat="45.8822502" lon="9.6524268">
        <ele>343.8085938</ele>
        <time>2009-01-31T10:16:37Z</time>
      </trkpt>
      <trkpt lat="45.8829074" lon="9.6525616">
        <ele>344.7700195</ele>
        <time>2009-01-31T10:16:53Z</time>
      </trkpt>
      <trkpt lat="45.8830227" lon="9.6525893">
        <ele>345.2506104</ele>
        <time>2009-01-31T10:16:56Z</time>
      </trkpt>
      <trkpt lat="45.8836792" lon="9.6527523">
        <ele>346.2120361</ele>
        <time>2009-01-31T10:17:12Z</time>
      </trkpt>
      <trkpt lat="45.8843326" lon="9.6529297">
        <ele>347.6539307</ele>
        <time>2009-01-31T10:17:28Z</time>
      </trkpt>
      <trkpt lat="45.8843673" lon="9.6529428">
        <ele>347.6539307</ele>
        <time>2009-01-31T10:17:29Z</time>
      </trkpt>
      <trkpt lat="45.8846081" lon="9.6530470">
        <ele>348.1346436</ele>
        <time>2009-01-31T10:17:35Z</time>
      </trkpt>
      <trkpt lat="45.8847734" lon="9.6531196">
        <ele>348.6152344</ele>
        <time>2009-01-31T10:17:39Z</time>
      </trkpt>
      <trkpt lat="45.8855192" lon="9.6532485">
        <ele>350.0572510</ele>
        <time>2009-01-31T10:17:56Z</time>
      </trkpt>
      <trkpt lat="45.8857331" lon="9.6532780">
        <ele>350.0572510</ele>
        <time>2009-01-31T10:18:01Z</time>
      </trkpt>
      <trkpt lat="45.8859465" lon="9.6532863">
        <ele>350.5378418</ele>
        <time>2009-01-31T10:18:06Z</time>
      </trkpt>
      <trkpt lat="45.8861529" lon="9.6533248">
        <ele>351.0184326</ele>
        <time>2009-01-31T10:18:11Z</time>
      </trkpt>
      <trkpt lat="45.8863718" lon="9.6533547">
        <ele>351.0184326</ele>
        <time>2009-01-31T10:18:16Z</time>
      </trkpt>
      <trkpt lat="45.8869038" lon="9.6533192">
        <ele>351.9798584</ele>
        <time>2009-01-31T10:18:27Z</time>
      </trkpt>
      <trkpt lat="45.8875969" lon="9.6531392">
        <ele>352.9411621</ele>
        <time>2009-01-31T10:18:42Z</time>
      </trkpt>
      <trkpt lat="45.8879643" lon="9.6529977">
        <ele>354.3831787</ele>
        <time>2009-01-31T10:18:55Z</time>
      </trkpt>
      <trkpt lat="45.8880220" lon="9.6529988">
        <ele>354.8637695</ele>
        <time>2009-01-31T10:18:59Z</time>
      </trkpt>
      <trkpt lat="45.8880969" lon="9.6531828">
        <ele>355.3444824</ele>
        <time>2009-01-31T10:19:08Z</time>
      </trkpt>
      <trkpt lat="45.8881292" lon="9.6531018">
        <ele>355.8251953</ele>
        <time>2009-01-31T10:19:29Z</time>
      </trkpt>
      <trkpt lat="45.8881331" lon="9.6531127">
        <ele>355.8251953</ele>
        <time>2009-01-31T10:19:31Z</time>
      </trkpt>
      <trkpt lat="45.8882256" lon="9.6530755">
        <ele>356.7863770</ele>
        <time>2009-01-31T10:19:42Z</time>
      </trkpt>
      <trkpt lat="45.8882357" lon="9.6531002">
        <ele>359.6704102</ele>
        <time>2009-01-31T10:21:32Z</time>
      </trkpt>
      <trkpt lat="45.8882590" lon="9.6531361">
        <ele>360.6317139</ele>
        <time>2009-01-31T10:22:32Z</time>
      </trkpt>
      <trkpt lat="45.8892068" lon="9.6537660">
        <ele>361.5931396</ele>
        <time>2009-01-31T10:22:46Z</time>
      </trkpt>
      <trkpt lat="45.8896054" lon="9.6540726">
        <ele>362.5543213</ele>
        <time>2009-01-31T10:23:01Z</time>
      </trkpt>
      <trkpt lat="45.8898164" lon="9.6540339">
        <ele>363.5157471</ele>
        <time>2009-01-31T10:23:16Z</time>
      </trkpt>
      <trkpt lat="45.8919109" lon="9.6541356">
        <ele>365.9189453</ele>
        <time>2009-01-31T10:24:08Z</time>
      </trkpt>
      <trkpt lat="45.8920205" lon="9.6543281">
        <ele>365.4383545</ele>
        <time>2009-01-31T10:24:04Z</time>
      </trkpt>
      <trkpt lat="45.8919717" lon="9.6543926">
        <ele>365.4383545</ele>
        <time>2009-01-31T10:24:02Z</time>
      </trkpt>
      <trkpt lat="45.8919109" lon="9.6541356">
        <ele>367.3609619</ele>
        <time>2009-01-31T10:24:39Z</time>
      </trkpt>
      <trkpt lat="45.8919109" lon="9.6541356">
        <ele>368.3222656</ele>
        <time>2009-01-31T10:25:04Z</time>
      </trkpt>
      <trkpt lat="45.8953726" lon="9.6559788">
        <ele>369.7642822</ele>
        <time>2009-01-31T10:25:21Z</time>
      </trkpt>
      <trkpt lat="45.8960433" lon="9.6566016">
        <ele>371.2062988</ele>
        <time>2009-01-31T10:25:39Z</time>
      </trkpt>
      <trkpt lat="45.8961687" lon="9.6567584">
        <ele>370.7255859</ele>
        <time>2009-01-31T10:25:43Z</time>
      </trkpt>
      <trkpt lat="45.8965932" lon="9.6571366">
        <ele>371.2062988</ele>
        <time>2009-01-31T10:25:54Z</time>
      </trkpt>
      <trkpt lat="45.8967978" lon="9.6573029">
        <ele>371.2062988</ele>
        <time>2009-01-31T10:25:59Z</time>
      </trkpt>
      <trkpt lat="45.8970462" lon="9.6574932">
        <ele>371.2062988</ele>
        <time>2009-01-31T10:26:05Z</time>
      </trkpt>
      <trkpt lat="45.8971849" lon="9.6575820">
        <ele>371.6868896</ele>
        <time>2009-01-31T10:26:08Z</time>
      </trkpt>
      <trkpt lat="45.8980685" lon="9.6577500">
        <ele>373.1289063</ele>
        <time>2009-01-31T10:26:27Z</time>
      </trkpt>
      <trkpt lat="45.8984015" lon="9.6578076">
        <ele>376.4935303</ele>
        <time>2009-01-31T10:26:35Z</time>
      </trkpt>
      <trkpt lat="45.8985759" lon="9.6578276">
        <ele>379.3774414</ele>
        <time>2009-01-31T10:26:44Z</time>
      </trkpt>
      <trkpt lat="45.8988460" lon="9.6579256">
        <ele>380.8194580</ele>
        <time>2009-01-31T10:26:55Z</time>
      </trkpt>
      <trkpt lat="45.8992256" lon="9.6582019">
        <ele>381.3000488</ele>
        <time>2009-01-31T10:27:06Z</time>
      </trkpt>
      <trkpt lat="45.8995499" lon="9.6583760">
        <ele>379.8580322</ele>
        <time>2009-01-31T10:27:14Z</time>
      </trkpt>
      <trkpt lat="45.9002711" lon="9.6586663">
        <ele>379.3774414</ele>
        <time>2009-01-31T10:27:31Z</time>
      </trkpt>
      <trkpt lat="45.9005941" lon="9.6588465">
        <ele>380.3387451</ele>
        <time>2009-01-31T10:27:40Z</time>
      </trkpt>
      <trkpt lat="45.9009079" lon="9.6590543">
        <ele>380.3387451</ele>
        <time>2009-01-31T10:27:48Z</time>
      </trkpt>
      <trkpt lat="45.9013891" lon="9.6595677">
        <ele>380.8194580</ele>
        <time>2009-01-31T10:28:02Z</time>
      </trkpt>
      <trkpt lat="45.9014526" lon="9.6596429">
        <ele>380.8194580</ele>
        <time>2009-01-31T10:28:04Z</time>
      </trkpt>
      <trkpt lat="45.9021522" lon="9.6600348">
        <ele>381.7806396</ele>
        <time>2009-01-31T10:28:22Z</time>
      </trkpt>
      <trkpt lat="45.9029392" lon="9.6606595">
        <ele>380.8194580</ele>
        <time>2009-01-31T10:28:40Z</time>
      </trkpt>
      <trkpt lat="45.9037971" lon="9.6611368">
        <ele>381.3000488</ele>
        <time>2009-01-31T10:28:57Z</time>
      </trkpt>
      <trkpt lat="45.9043795" lon="9.6612614">
        <ele>381.7806396</ele>
        <time>2009-01-31T10:29:08Z</time>
      </trkpt>
      <trkpt lat="45.9048518" lon="9.6615600">
        <ele>385.1453857</ele>
        <time>2009-01-31T10:29:21Z</time>
      </trkpt>
      <trkpt lat="45.9050155" lon="9.6615617">
        <ele>385.6259766</ele>
        <time>2009-01-31T10:29:25Z</time>
      </trkpt>
      <trkpt lat="45.9051299" lon="9.6614571">
        <ele>386.1066895</ele>
        <time>2009-01-31T10:29:28Z</time>
      </trkpt>
      <trkpt lat="45.9051773" lon="9.6613648">
        <ele>386.1066895</ele>
        <time>2009-01-31T10:29:30Z</time>
      </trkpt>
      <trkpt lat="45.9052991" lon="9.6607675">
        <ele>386.5874023</ele>
        <time>2009-01-31T10:29:40Z</time>
      </trkpt>
      <trkpt lat="45.9053116" lon="9.6605880">
        <ele>387.0679932</ele>
        <time>2009-01-31T10:29:43Z</time>
      </trkpt>
      <trkpt lat="45.9054310" lon="9.6601442">
        <ele>390.4326172</ele>
        <time>2009-01-31T10:29:54Z</time>
      </trkpt>
      <trkpt lat="45.9055997" lon="9.6597439">
        <ele>393.7972412</ele>
        <time>2009-01-31T10:30:07Z</time>
      </trkpt>
      <trkpt lat="45.9057836" lon="9.6593513">
        <ele>396.6811523</ele>
        <time>2009-01-31T10:30:21Z</time>
      </trkpt>
      <trkpt lat="45.9059754" lon="9.6590924">
        <ele>398.1231689</ele>
        <time>2009-01-31T10:30:34Z</time>
      </trkpt>
      <trkpt lat="45.9061592" lon="9.6589436">
        <ele>398.1231689</ele>
        <time>2009-01-31T10:30:43Z</time>
      </trkpt>
      <trkpt lat="45.9062507" lon="9.6586996">
        <ele>397.1617432</ele>
        <time>2009-01-31T10:30:53Z</time>
      </trkpt>
      <trkpt lat="45.9066296" lon="9.6586137">
        <ele>395.7198486</ele>
        <time>2009-01-31T10:31:04Z</time>
      </trkpt>
      <trkpt lat="45.9070957" lon="9.6586316">
        <ele>396.6811523</ele>
        <time>2009-01-31T10:31:22Z</time>
      </trkpt>
      <trkpt lat="45.9076329" lon="9.6587015">
        <ele>397.1617432</ele>
        <time>2009-01-31T10:31:37Z</time>
      </trkpt>
      <trkpt lat="45.9079910" lon="9.6588670">
        <ele>398.1231689</ele>
        <time>2009-01-31T10:31:50Z</time>
      </trkpt>
      <trkpt lat="45.9081041" lon="9.6589152">
        <ele>398.6037598</ele>
        <time>2009-01-31T10:31:55Z</time>
      </trkpt>
      <trkpt lat="45.9083812" lon="9.6591309">
        <ele>399.5650635</ele>
        <time>2009-01-31T10:32:05Z</time>
      </trkpt>
      <trkpt lat="45.9084064" lon="9.6591905">
        <ele>399.5650635</ele>
        <time>2009-01-31T10:32:07Z</time>
      </trkpt>
      <trkpt lat="45.9087055" lon="9.6598763">
        <ele>402.4490967</ele>
        <time>2009-01-31T10:32:26Z</time>
      </trkpt>
      <trkpt lat="45.9089392" lon="9.6601863">
        <ele>404.3717041</ele>
        <time>2009-01-31T10:32:38Z</time>
      </trkpt>
      <trkpt lat="45.9089400" lon="9.6604481">
        <ele>403.4104004</ele>
        <time>2009-01-31T10:32:44Z</time>
      </trkpt>
      <trkpt lat="45.9089664" lon="9.6607663">
        <ele>401.0070801</ele>
        <time>2009-01-31T10:32:48Z</time>
      </trkpt>
      <trkpt lat="45.9092624" lon="9.6617536">
        <ele>401.4877930</ele>
        <time>2009-01-31T10:33:04Z</time>
      </trkpt>
      <trkpt lat="45.9094515" lon="9.6625416">
        <ele>402.4490967</ele>
        <time>2009-01-31T10:33:17Z</time>
      </trkpt>
      <trkpt lat="45.9095035" lon="9.6627474">
        <ele>402.9296875</ele>
        <time>2009-01-31T10:33:26Z</time>
      </trkpt>
      <trkpt lat="45.9095048" lon="9.6627569">
        <ele>403.8911133</ele>
        <time>2009-01-31T10:34:02Z</time>
      </trkpt>
      <trkpt lat="45.9095871" lon="9.6632181">
        <ele>403.4104004</ele>
        <time>2009-01-31T10:34:14Z</time>
      </trkpt>
      <trkpt lat="45.9098237" lon="9.6638722">
        <ele>403.4104004</ele>
        <time>2009-01-31T10:34:25Z</time>
      </trkpt>
      <trkpt lat="45.9098889" lon="9.6640483">
        <ele>404.3717041</ele>
        <time>2009-01-31T10:34:28Z</time>
      </trkpt>
      <trkpt lat="45.9100941" lon="9.6647645">
        <ele>404.3717041</ele>
        <time>2009-01-31T10:34:41Z</time>
      </trkpt>
      <trkpt lat="45.9108771" lon="9.6654789">
        <ele>404.3717041</ele>
        <time>2009-01-31T10:34:59Z</time>
      </trkpt>
      <trkpt lat="45.9106402" lon="9.6650918">
        <ele>405.8137207</ele>
        <time>2009-01-31T10:35:21Z</time>
      </trkpt>
      <trkpt lat="45.9106402" lon="9.6650918">
        <ele>405.3330078</ele>
        <time>2009-01-31T10:35:23Z</time>
      </trkpt>
      <trkpt lat="45.9125675" lon="9.6656843">
        <ele>405.8137207</ele>
        <time>2009-01-31T10:35:32Z</time>
      </trkpt>
      <trkpt lat="45.9132389" lon="9.6658255">
        <ele>403.4104004</ele>
        <time>2009-01-31T10:35:46Z</time>
      </trkpt>
      <trkpt lat="45.9139316" lon="9.6660525">
        <ele>405.8137207</ele>
        <time>2009-01-31T10:36:02Z</time>
      </trkpt>
      <trkpt lat="45.9142698" lon="9.6662501">
        <ele>406.7749023</ele>
        <time>2009-01-31T10:36:12Z</time>
      </trkpt>
      <trkpt lat="45.9147883" lon="9.6661950">
        <ele>407.2556152</ele>
        <time>2009-01-31T10:36:24Z</time>
      </trkpt>
      <trkpt lat="45.9148924" lon="9.6661858">
        <ele>407.7363281</ele>
        <time>2009-01-31T10:36:26Z</time>
      </trkpt>
      <trkpt lat="45.9158994" lon="9.6662246">
        <ele>406.7749023</ele>
        <time>2009-01-31T10:36:44Z</time>
      </trkpt>
      <trkpt lat="45.9169193" lon="9.6663240">
        <ele>406.7749023</ele>
        <time>2009-01-31T10:37:02Z</time>
      </trkpt>
      <trkpt lat="45.9179279" lon="9.6664705">
        <ele>405.8137207</ele>
        <time>2009-01-31T10:37:21Z</time>
      </trkpt>
      <trkpt lat="45.9189842" lon="9.6666486">
        <ele>407.7363281</ele>
        <time>2009-01-31T10:37:40Z</time>
      </trkpt>
      <trkpt lat="45.9199723" lon="9.6668214">
        <ele>408.2170410</ele>
        <time>2009-01-31T10:37:57Z</time>
      </trkpt>
      <trkpt lat="45.9210182" lon="9.6670031">
        <ele>409.6590576</ele>
        <time>2009-01-31T10:38:17Z</time>
      </trkpt>
      <trkpt lat="45.9219241" lon="9.6671455">
        <ele>411.1009521</ele>
        <time>2009-01-31T10:38:35Z</time>
      </trkpt>
      <trkpt lat="45.9227868" lon="9.6672884">
        <ele>412.5428467</ele>
        <time>2009-01-31T10:38:52Z</time>
      </trkpt>
      <trkpt lat="45.9235726" lon="9.6672478">
        <ele>414.4654541</ele>
        <time>2009-01-31T10:39:08Z</time>
      </trkpt>
      <trkpt lat="45.9240054" lon="9.6671095">
        <ele>415.4268799</ele>
        <time>2009-01-31T10:39:17Z</time>
      </trkpt>
      <trkpt lat="45.9241723" lon="9.6670997">
        <ele>415.9074707</ele>
        <time>2009-01-31T10:39:21Z</time>
      </trkpt>
      <trkpt lat="45.9242432" lon="9.6671188">
        <ele>416.3881836</ele>
        <time>2009-01-31T10:39:23Z</time>
      </trkpt>
      <trkpt lat="45.9244688" lon="9.6673290">
        <ele>417.3496094</ele>
        <time>2009-01-31T10:39:33Z</time>
      </trkpt>
      <trkpt lat="45.9245123" lon="9.6674309">
        <ele>417.3496094</ele>
        <time>2009-01-31T10:39:37Z</time>
      </trkpt>
      <trkpt lat="45.9243821" lon="9.6679807">
        <ele>417.3496094</ele>
        <time>2009-01-31T10:39:52Z</time>
      </trkpt>
      <trkpt lat="45.9243567" lon="9.6681174">
        <ele>415.4268799</ele>
        <time>2009-01-31T10:39:55Z</time>
      </trkpt>
      <trkpt lat="45.9245588" lon="9.6681883">
        <ele>413.9848633</ele>
        <time>2009-01-31T10:40:03Z</time>
      </trkpt>
      <trkpt lat="45.9250739" lon="9.6685550">
        <ele>415.4268799</ele>
        <time>2009-01-31T10:40:18Z</time>
      </trkpt>
      <trkpt lat="45.9252186" lon="9.6686505">
        <ele>415.9074707</ele>
        <time>2009-01-31T10:40:22Z</time>
      </trkpt>
      <trkpt lat="45.9254606" lon="9.6687919">
        <ele>415.4268799</ele>
        <time>2009-01-31T10:40:28Z</time>
      </trkpt>
      <trkpt lat="45.9260783" lon="9.6690288">
        <ele>415.9074707</ele>
        <time>2009-01-31T10:40:43Z</time>
      </trkpt>
      <trkpt lat="45.9265454" lon="9.6691775">
        <ele>418.3107910</ele>
        <time>2009-01-31T10:40:57Z</time>
      </trkpt>
      <trkpt lat="45.9268530" lon="9.6692080">
        <ele>416.8688965</ele>
        <time>2009-01-31T10:41:04Z</time>
      </trkpt>
      <trkpt lat="45.9270564" lon="9.6692223">
        <ele>416.8688965</ele>
        <time>2009-01-31T10:41:08Z</time>
      </trkpt>
      <trkpt lat="45.9271417" lon="9.6692158">
        <ele>416.8688965</ele>
        <time>2009-01-31T10:41:10Z</time>
      </trkpt>
      <trkpt lat="45.9277784" lon="9.6694102">
        <ele>417.8302002</ele>
        <time>2009-01-31T10:41:24Z</time>
      </trkpt>
      <trkpt lat="45.9284166" lon="9.6694653">
        <ele>417.8302002</ele>
        <time>2009-01-31T10:41:36Z</time>
      </trkpt>
      <trkpt lat="45.9289466" lon="9.6692587">
        <ele>419.7528076</ele>
        <time>2009-01-31T10:41:50Z</time>
      </trkpt>
      <trkpt lat="45.9293635" lon="9.6690134">
        <ele>420.2333984</ele>
        <time>2009-01-31T10:42:03Z</time>
      </trkpt>
      <trkpt lat="45.9297152" lon="9.6689250">
        <ele>420.7141113</ele>
        <time>2009-01-31T10:42:16Z</time>
      </trkpt>
      <trkpt lat="45.9302794" lon="9.6688866">
        <ele>421.1948242</ele>
        <time>2009-01-31T10:42:29Z</time>
      </trkpt>
      <trkpt lat="45.9305400" lon="9.6688095">
        <ele>424.5594482</ele>
        <time>2009-01-31T10:42:38Z</time>
      </trkpt>
      <trkpt lat="45.9309365" lon="9.6688432">
        <ele>426.9627686</ele>
        <time>2009-01-31T10:42:50Z</time>
      </trkpt>
      <trkpt lat="45.9313917" lon="9.6689489">
        <ele>427.4433594</ele>
        <time>2009-01-31T10:43:02Z</time>
      </trkpt>
      <trkpt lat="45.9318154" lon="9.6691602">
        <ele>427.9239502</ele>
        <time>2009-01-31T10:43:14Z</time>
      </trkpt>
      <trkpt lat="45.9321302" lon="9.6689158">
        <ele>427.9239502</ele>
        <time>2009-01-31T10:43:25Z</time>
      </trkpt>
      <trkpt lat="45.9323758" lon="9.6688224">
        <ele>425.5207520</ele>
        <time>2009-01-31T10:43:32Z</time>
      </trkpt>
      <trkpt lat="45.9329776" lon="9.6683061">
        <ele>425.0401611</ele>
        <time>2009-01-31T10:43:48Z</time>
      </trkpt>
      <trkpt lat="45.9335744" lon="9.6679034">
        <ele>425.5207520</ele>
        <time>2009-01-31T10:44:02Z</time>
      </trkpt>
      <trkpt lat="45.9340762" lon="9.6678040">
        <ele>427.9239502</ele>
        <time>2009-01-31T10:44:16Z</time>
      </trkpt>
      <trkpt lat="45.9341997" lon="9.6677548">
        <ele>429.3659668</ele>
        <time>2009-01-31T10:44:23Z</time>
      </trkpt>
      <trkpt lat="45.9342535" lon="9.6675018">
        <ele>430.8079834</ele>
        <time>2009-01-31T10:44:37Z</time>
      </trkpt>
      <trkpt lat="45.9343498" lon="9.6672130">
        <ele>429.8465576</ele>
        <time>2009-01-31T10:44:50Z</time>
      </trkpt>
      <trkpt lat="45.9343501" lon="9.6672005">
        <ele>429.8465576</ele>
        <time>2009-01-31T10:44:51Z</time>
      </trkpt>
      <trkpt lat="45.9343339" lon="9.6671487">
        <ele>430.3272705</ele>
        <time>2009-01-31T10:44:55Z</time>
      </trkpt>
      <trkpt lat="45.9342737" lon="9.6671327">
        <ele>430.3272705</ele>
        <time>2009-01-31T10:44:59Z</time>
      </trkpt>
      <trkpt lat="45.9342157" lon="9.6671320">
        <ele>430.8079834</ele>
        <time>2009-01-31T10:45:23Z</time>
      </trkpt>
      <trkpt lat="45.9342194" lon="9.6671306">
        <ele>431.2885742</ele>
        <time>2009-01-31T10:45:31Z</time>
      </trkpt>
      <trkpt lat="45.9343087" lon="9.6670108">
        <ele>431.7691650</ele>
        <time>2009-01-31T10:45:37Z</time>
      </trkpt>
      <trkpt lat="45.9346317" lon="9.6670188">
        <ele>434.1726074</ele>
        <time>2009-01-31T10:45:53Z</time>
      </trkpt>
      <trkpt lat="45.9350008" lon="9.6670389">
        <ele>437.0565186</ele>
        <time>2009-01-31T10:46:08Z</time>
      </trkpt>
      <trkpt lat="45.9353730" lon="9.6672041">
        <ele>439.4597168</ele>
        <time>2009-01-31T10:46:25Z</time>
      </trkpt>
      <trkpt lat="45.9358049" lon="9.6676233">
        <ele>440.9018555</ele>
        <time>2009-01-31T10:46:42Z</time>
      </trkpt>
      <trkpt lat="45.9362767" lon="9.6680280">
        <ele>441.8631592</ele>
        <time>2009-01-31T10:46:59Z</time>
      </trkpt>
      <trkpt lat="45.9366997" lon="9.6683638">
        <ele>443.3050537</ele>
        <time>2009-01-31T10:47:14Z</time>
      </trkpt>
      <trkpt lat="45.9369995" lon="9.6685810">
        <ele>444.2664795</ele>
        <time>2009-01-31T10:47:26Z</time>
      </trkpt>
      <trkpt lat="45.9374702" lon="9.6690966">
        <ele>445.7083740</ele>
        <time>2009-01-31T10:47:45Z</time>
      </trkpt>
      <trkpt lat="45.9377398" lon="9.6694052">
        <ele>446.6696777</ele>
        <time>2009-01-31T10:47:57Z</time>
      </trkpt>
      <trkpt lat="45.9380023" lon="9.6696874">
        <ele>447.1502686</ele>
        <time>2009-01-31T10:48:10Z</time>
      </trkpt>
      <trkpt lat="45.9383037" lon="9.6700134">
        <ele>447.6309814</ele>
        <time>2009-01-31T10:48:25Z</time>
      </trkpt>
      <trkpt lat="45.9386513" lon="9.6704045">
        <ele>448.1118164</ele>
        <time>2009-01-31T10:48:39Z</time>
      </trkpt>
      <trkpt lat="45.9389992" lon="9.6707719">
        <ele>449.0729980</ele>
        <time>2009-01-31T10:48:53Z</time>
      </trkpt>
      <trkpt lat="45.9395069" lon="9.6713266">
        <ele>450.0344238</ele>
        <time>2009-01-31T10:49:11Z</time>
      </trkpt>
      <trkpt lat="45.9399151" lon="9.6717767">
        <ele>450.5150146</ele>
        <time>2009-01-31T10:49:27Z</time>
      </trkpt>
      <trkpt lat="45.9402764" lon="9.6721781">
        <ele>451.4763184</ele>
        <time>2009-01-31T10:49:43Z</time>
      </trkpt>
      <trkpt lat="45.9406601" lon="9.6726583">
        <ele>451.9570313</ele>
        <time>2009-01-31T10:49:59Z</time>
      </trkpt>
      <trkpt lat="45.9409738" lon="9.6732310">
        <ele>451.9570313</ele>
        <time>2009-01-31T10:50:16Z</time>
      </trkpt>
      <trkpt lat="45.9412680" lon="9.6738143">
        <ele>452.4376221</ele>
        <time>2009-01-31T10:50:32Z</time>
      </trkpt>
      <trkpt lat="45.9416513" lon="9.6745094">
        <ele>451.9570313</ele>
        <time>2009-01-31T10:50:51Z</time>
      </trkpt>
      <trkpt lat="45.9419628" lon="9.6750764">
        <ele>451.9570313</ele>
        <time>2009-01-31T10:51:05Z</time>
      </trkpt>
      <trkpt lat="45.9422425" lon="9.6756442">
        <ele>452.4376221</ele>
        <time>2009-01-31T10:51:20Z</time>
      </trkpt>
      <trkpt lat="45.9423932" lon="9.6759435">
        <ele>453.3989258</ele>
        <time>2009-01-31T10:51:32Z</time>
      </trkpt>
      <trkpt lat="45.9426533" lon="9.6764725">
        <ele>453.3989258</ele>
        <time>2009-01-31T10:51:45Z</time>
      </trkpt>
      <trkpt lat="45.9428182" lon="9.6773096">
        <ele>454.8408203</ele>
        <time>2009-01-31T10:52:01Z</time>
      </trkpt>
      <trkpt lat="45.9428455" lon="9.6776904">
        <ele>456.2829590</ele>
        <time>2009-01-31T10:52:11Z</time>
      </trkpt>
      <trkpt lat="45.9428528" lon="9.6777118">
        <ele>456.2829590</ele>
        <time>2009-01-31T10:52:13Z</time>
      </trkpt>
      <trkpt lat="45.9428506" lon="9.6779688">
        <ele>455.8022461</ele>
        <time>2009-01-31T10:52:21Z</time>
      </trkpt>
      <trkpt lat="45.9429430" lon="9.6784700">
        <ele>457.2442627</ele>
        <time>2009-01-31T10:52:36Z</time>
      </trkpt>
      <trkpt lat="45.9429499" lon="9.6784995">
        <ele>458.2055664</ele>
        <time>2009-01-31T10:52:52Z</time>
      </trkpt>
      <trkpt lat="45.9430231" lon="9.6787041">
        <ele>458.2055664</ele>
        <time>2009-01-31T10:53:00Z</time>
      </trkpt>
      <trkpt lat="45.9432470" lon="9.6792163">
        <ele>459.6475830</ele>
        <time>2009-01-31T10:53:17Z</time>
      </trkpt>
      <trkpt lat="45.9434143" lon="9.6795690">
        <ele>460.6087646</ele>
        <time>2009-01-31T10:53:29Z</time>
      </trkpt>
      <trkpt lat="45.9435627" lon="9.6799069">
        <ele>462.0507813</ele>
        <time>2009-01-31T10:53:41Z</time>
      </trkpt>
      <trkpt lat="45.9437335" lon="9.6803452">
        <ele>463.0120850</ele>
        <time>2009-01-31T10:53:55Z</time>
      </trkpt>
      <trkpt lat="45.9438153" lon="9.6808717">
        <ele>464.4541016</ele>
        <time>2009-01-31T10:54:11Z</time>
      </trkpt>
      <trkpt lat="45.9437956" lon="9.6814729">
        <ele>465.8961182</ele>
        <time>2009-01-31T10:54:29Z</time>
      </trkpt>
      <trkpt lat="45.9437342" lon="9.6819164">
        <ele>466.3767090</ele>
        <time>2009-01-31T10:54:43Z</time>
      </trkpt>
      <trkpt lat="45.9436523" lon="9.6823705">
        <ele>467.3381348</ele>
        <time>2009-01-31T10:54:57Z</time>
      </trkpt>
      <trkpt lat="45.9435731" lon="9.6828466">
        <ele>468.2993164</ele>
        <time>2009-01-31T10:55:11Z</time>
      </trkpt>
      <trkpt lat="45.9434951" lon="9.6832473">
        <ele>469.7413330</ele>
        <time>2009-01-31T10:55:24Z</time>
      </trkpt>
      <trkpt lat="45.9434731" lon="9.6834775">
        <ele>470.2219238</ele>
        <time>2009-01-31T10:55:31Z</time>
      </trkpt>
      <trkpt lat="45.9434876" lon="9.6839986">
        <ele>471.1833496</ele>
        <time>2009-01-31T10:55:46Z</time>
      </trkpt>
      <trkpt lat="45.9435440" lon="9.6843151">
        <ele>472.1446533</ele>
        <time>2009-01-31T10:55:58Z</time>
      </trkpt>
      <trkpt lat="45.9435913" lon="9.6844989">
        <ele>472.6253662</ele>
        <time>2009-01-31T10:56:28Z</time>
      </trkpt>
      <trkpt lat="45.9437154" lon="9.6847804">
        <ele>473.5866699</ele>
        <time>2009-01-31T10:56:39Z</time>
      </trkpt>
      <trkpt lat="45.9439083" lon="9.6851757">
        <ele>474.5479736</ele>
        <time>2009-01-31T10:56:54Z</time>
      </trkpt>
      <trkpt lat="45.9441160" lon="9.6854444">
        <ele>475.5092773</ele>
        <time>2009-01-31T10:57:07Z</time>
      </trkpt>
      <trkpt lat="45.9443805" lon="9.6856763">
        <ele>476.4705811</ele>
        <time>2009-01-31T10:57:21Z</time>
      </trkpt>
      <trkpt lat="45.9446493" lon="9.6858227">
        <ele>477.4318848</ele>
        <time>2009-01-31T10:57:34Z</time>
      </trkpt>
      <trkpt lat="45.9449529" lon="9.6859137">
        <ele>478.3931885</ele>
        <time>2009-01-31T10:57:48Z</time>
      </trkpt>
      <trkpt lat="45.9452989" lon="9.6859212">
        <ele>479.8350830</ele>
        <time>2009-01-31T10:58:03Z</time>
      </trkpt>
      <trkpt lat="45.9455693" lon="9.6858344">
        <ele>480.7966309</ele>
        <time>2009-01-31T10:58:15Z</time>
      </trkpt>
      <trkpt lat="45.9458617" lon="9.6856798">
        <ele>481.7578125</ele>
        <time>2009-01-31T10:58:30Z</time>
      </trkpt>
      <trkpt lat="45.9461313" lon="9.6854505">
        <ele>482.7192383</ele>
        <time>2009-01-31T10:58:43Z</time>
      </trkpt>
      <trkpt lat="45.9463615" lon="9.6851832">
        <ele>483.6804199</ele>
        <time>2009-01-31T10:58:56Z</time>
      </trkpt>
      <trkpt lat="45.9465092" lon="9.6848870">
        <ele>484.6418457</ele>
        <time>2009-01-31T10:59:08Z</time>
      </trkpt>
      <trkpt lat="45.9465231" lon="9.6848173">
        <ele>485.1224365</ele>
        <time>2009-01-31T10:59:10Z</time>
      </trkpt>
      <trkpt lat="45.9466079" lon="9.6843500">
        <ele>486.0837402</ele>
        <time>2009-01-31T10:59:23Z</time>
      </trkpt>
      <trkpt lat="45.9466881" lon="9.6838954">
        <ele>486.5644531</ele>
        <time>2009-01-31T10:59:37Z</time>
      </trkpt>
      <trkpt lat="45.9467052" lon="9.6833852">
        <ele>488.0064697</ele>
        <time>2009-01-31T10:59:54Z</time>
      </trkpt>
      <trkpt lat="45.9467070" lon="9.6831802">
        <ele>488.4871826</ele>
        <time>2009-01-31T11:00:02Z</time>
      </trkpt>
      <trkpt lat="45.9467027" lon="9.6830445">
        <ele>488.4871826</ele>
        <time>2009-01-31T11:00:07Z</time>
      </trkpt>
      <trkpt lat="45.9466716" lon="9.6825263">
        <ele>489.4483643</ele>
        <time>2009-01-31T11:00:22Z</time>
      </trkpt>
      <trkpt lat="45.9466288" lon="9.6819662">
        <ele>490.4097900</ele>
        <time>2009-01-31T11:00:38Z</time>
      </trkpt>
      <trkpt lat="45.9466111" lon="9.6818716">
        <ele>490.4097900</ele>
        <time>2009-01-31T11:00:41Z</time>
      </trkpt>
      <trkpt lat="45.9465302" lon="9.6814082">
        <ele>490.8903809</ele>
        <time>2009-01-31T11:00:54Z</time>
      </trkpt>
      <trkpt lat="45.9464565" lon="9.6810345">
        <ele>490.8903809</ele>
        <time>2009-01-31T11:01:08Z</time>
      </trkpt>
      <trkpt lat="45.9462143" lon="9.6805352">
        <ele>491.3709717</ele>
        <time>2009-01-31T11:01:20Z</time>
      </trkpt>
      <trkpt lat="45.9460346" lon="9.6800105">
        <ele>491.3709717</ele>
        <time>2009-01-31T11:01:34Z</time>
      </trkpt>
      <trkpt lat="45.9458256" lon="9.6794795">
        <ele>490.8903809</ele>
        <time>2009-01-31T11:01:46Z</time>
      </trkpt>
      <trkpt lat="45.9457746" lon="9.6792533">
        <ele>491.8516846</ele>
        <time>2009-01-31T11:01:52Z</time>
      </trkpt>
      <trkpt lat="45.9457714" lon="9.6792331">
        <ele>494.2550049</ele>
        <time>2009-01-31T11:02:24Z</time>
      </trkpt>
      <trkpt lat="45.9457714" lon="9.6792331">
        <ele>497.1389160</ele>
        <time>2009-01-31T11:03:06Z</time>
      </trkpt>
      <trkpt lat="45.9457714" lon="9.6792331">
        <ele>499.0615234</ele>
        <time>2009-01-31T11:03:13Z</time>
      </trkpt>
      <trkpt lat="45.9466146" lon="9.6755634">
        <ele>499.5422363</ele>
        <time>2009-01-31T11:03:15Z</time>
      </trkpt>
      <trkpt lat="45.9469702" lon="9.6751515">
        <ele>499.5422363</ele>
        <time>2009-01-31T11:03:32Z</time>
      </trkpt>
      <trkpt lat="45.9471616" lon="9.6746950">
        <ele>500.0229492</ele>
        <time>2009-01-31T11:03:44Z</time>
      </trkpt>
      <trkpt lat="45.9473407" lon="9.6742399">
        <ele>500.0229492</ele>
        <time>2009-01-31T11:03:57Z</time>
      </trkpt>
      <trkpt lat="45.9476123" lon="9.6736946">
        <ele>500.0229492</ele>
        <time>2009-01-31T11:04:12Z</time>
      </trkpt>
      <trkpt lat="45.9478373" lon="9.6732514">
        <ele>500.5035400</ele>
        <time>2009-01-31T11:04:27Z</time>
      </trkpt>
      <trkpt lat="45.9480922" lon="9.6727166">
        <ele>500.9841309</ele>
        <time>2009-01-31T11:04:43Z</time>
      </trkpt>
      <trkpt lat="45.9482287" lon="9.6724297">
        <ele>500.9841309</ele>
        <time>2009-01-31T11:04:57Z</time>
      </trkpt>
      <trkpt lat="45.9483537" lon="9.6723202">
        <ele>501.4648438</ele>
        <time>2009-01-31T11:05:19Z</time>
      </trkpt>
      <trkpt lat="45.9483522" lon="9.6723086">
        <ele>501.4648438</ele>
        <time>2009-01-31T11:05:20Z</time>
      </trkpt>
      <trkpt lat="45.9483344" lon="9.6722983">
        <ele>501.4648438</ele>
        <time>2009-01-31T11:05:36Z</time>
      </trkpt>
      <trkpt lat="45.9483279" lon="9.6722702">
        <ele>501.4648438</ele>
        <time>2009-01-31T11:06:14Z</time>
      </trkpt>
      <trkpt lat="45.9484331" lon="9.6720429">
        <ele>501.9455566</ele>
        <time>2009-01-31T11:06:22Z</time>
      </trkpt>
      <trkpt lat="45.9486696" lon="9.6719072">
        <ele>501.9455566</ele>
        <time>2009-01-31T11:06:34Z</time>
      </trkpt>
      <trkpt lat="45.9486874" lon="9.6719289">
        <ele>502.4261475</ele>
        <time>2009-01-31T11:06:35Z</time>
      </trkpt>
      <trkpt lat="45.9487287" lon="9.6719814">
        <ele>502.4261475</ele>
        <time>2009-01-31T11:06:50Z</time>
      </trkpt>
      <trkpt lat="45.9487284" lon="9.6719794">
        <ele>502.4261475</ele>
        <time>2009-01-31T11:07:12Z</time>
      </trkpt>
      <trkpt lat="45.9486848" lon="9.6721942">
        <ele>502.4261475</ele>
        <time>2009-01-31T11:07:20Z</time>
      </trkpt>
      <trkpt lat="45.9485222" lon="9.6725212">
        <ele>501.9455566</ele>
        <time>2009-01-31T11:07:30Z</time>
      </trkpt>
      <trkpt lat="45.9485532" lon="9.6728690">
        <ele>502.9067383</ele>
        <time>2009-01-31T11:07:41Z</time>
      </trkpt>
      <trkpt lat="45.9485483" lon="9.6729226">
        <ele>502.9067383</ele>
        <time>2009-01-31T11:07:58Z</time>
      </trkpt>
      <trkpt lat="45.9485464" lon="9.6729051">
        <ele>502.9067383</ele>
        <time>2009-01-31T11:08:05Z</time>
      </trkpt>
      <trkpt lat="45.9483947" lon="9.6729310">
        <ele>502.4261475</ele>
        <time>2009-01-31T11:31:45Z</time>
      </trkpt>
      <trkpt lat="45.9485505" lon="9.6729206">
        <ele>502.4261475</ele>
        <time>2009-01-31T11:32:48Z</time>
      </trkpt>
      <trkpt lat="45.9485581" lon="9.6729108">
        <ele>502.9067383</ele>
        <time>2009-01-31T11:33:20Z</time>
      </trkpt>
      <trkpt lat="45.9485488" lon="9.6728981">
        <ele>502.9067383</ele>
        <time>2009-01-31T11:33:36Z</time>
      </trkpt>
      <trkpt lat="45.9483418" lon="9.6726473">
        <ele>503.3874512</ele>
        <time>2009-01-31T11:33:47Z</time>
      </trkpt>
      <trkpt lat="45.9482912" lon="9.6726348">
        <ele>503.3874512</ele>
        <time>2009-01-31T11:33:49Z</time>
      </trkpt>
      <trkpt lat="45.9482895" lon="9.6723754">
        <ele>502.9067383</ele>
        <time>2009-01-31T11:33:58Z</time>
      </trkpt>
      <trkpt lat="45.9482625" lon="9.6723561">
        <ele>501.9455566</ele>
        <time>2009-01-31T11:34:00Z</time>
      </trkpt>
      <trkpt lat="45.9481538" lon="9.6725042">
        <ele>502.4261475</ele>
        <time>2009-01-31T11:34:05Z</time>
      </trkpt>
      <trkpt lat="45.9478125" lon="9.6731520">
        <ele>502.4261475</ele>
        <time>2009-01-31T11:34:21Z</time>
      </trkpt>
      <trkpt lat="45.9475333" lon="9.6737375">
        <ele>501.9455566</ele>
        <time>2009-01-31T11:34:36Z</time>
      </trkpt>
      <trkpt lat="45.9472841" lon="9.6742576">
        <ele>502.4261475</ele>
        <time>2009-01-31T11:34:49Z</time>
      </trkpt>
      <trkpt lat="45.9471297" lon="9.6746969">
        <ele>502.9067383</ele>
        <time>2009-01-31T11:35:00Z</time>
      </trkpt>
      <trkpt lat="45.9468693" lon="9.6752231">
        <ele>502.4261475</ele>
        <time>2009-01-31T11:35:13Z</time>
      </trkpt>
      <trkpt lat="45.9466423" lon="9.6755695">
        <ele>501.4648438</ele>
        <time>2009-01-31T11:35:23Z</time>
      </trkpt>
      <trkpt lat="45.9462074" lon="9.6760160">
        <ele>499.5422363</ele>
        <time>2009-01-31T11:35:39Z</time>
      </trkpt>
      <trkpt lat="45.9464280" lon="9.6757834">
        <ele>497.1389160</ele>
        <time>2009-01-31T11:36:02Z</time>
      </trkpt>
      <trkpt lat="45.9464280" lon="9.6757834">
        <ele>494.2550049</ele>
        <time>2009-01-31T11:36:20Z</time>
      </trkpt>
      <trkpt lat="45.9457762" lon="9.6795815">
        <ele>494.2550049</ele>
        <time>2009-01-31T11:36:23Z</time>
      </trkpt>
      <trkpt lat="45.9460169" lon="9.6801050">
        <ele>495.2161865</ele>
        <time>2009-01-31T11:36:34Z</time>
      </trkpt>
      <trkpt lat="45.9463211" lon="9.6808106">
        <ele>495.2161865</ele>
        <time>2009-01-31T11:36:51Z</time>
      </trkpt>
      <trkpt lat="45.9465214" lon="9.6813049">
        <ele>495.2161865</ele>
        <time>2009-01-31T11:37:03Z</time>
      </trkpt>
      <trkpt lat="45.9466091" lon="9.6820583">
        <ele>494.2550049</ele>
        <time>2009-01-31T11:37:17Z</time>
      </trkpt>
      <trkpt lat="45.9466686" lon="9.6830302">
        <ele>492.8129883</ele>
        <time>2009-01-31T11:37:34Z</time>
      </trkpt>
      <trkpt lat="45.9466725" lon="9.6837048">
        <ele>491.8516846</ele>
        <time>2009-01-31T11:37:46Z</time>
      </trkpt>
      <trkpt lat="45.9466332" lon="9.6842475">
        <ele>491.3709717</ele>
        <time>2009-01-31T11:37:57Z</time>
      </trkpt>
      <trkpt lat="45.9465016" lon="9.6847300">
        <ele>490.4097900</ele>
        <time>2009-01-31T11:38:07Z</time>
      </trkpt>
      <trkpt lat="45.9463366" lon="9.6850697">
        <ele>489.4483643</ele>
        <time>2009-01-31T11:38:14Z</time>
      </trkpt>
      <trkpt lat="45.9461562" lon="9.6853188">
        <ele>489.4483643</ele>
        <time>2009-01-31T11:38:20Z</time>
      </trkpt>
      <trkpt lat="45.9458671" lon="9.6856420">
        <ele>488.4871826</ele>
        <time>2009-01-31T11:38:29Z</time>
      </trkpt>
      <trkpt lat="45.9455713" lon="9.6858156">
        <ele>487.5256348</ele>
        <time>2009-01-31T11:38:37Z</time>
      </trkpt>
      <trkpt lat="45.9448930" lon="9.6858903">
        <ele>485.6030273</ele>
        <time>2009-01-31T11:38:52Z</time>
      </trkpt>
      <trkpt lat="45.9444499" lon="9.6857111">
        <ele>484.1611328</ele>
        <time>2009-01-31T11:39:02Z</time>
      </trkpt>
      <trkpt lat="45.9442677" lon="9.6855539">
        <ele>483.6804199</ele>
        <time>2009-01-31T11:39:07Z</time>
      </trkpt>
      <trkpt lat="45.9438748" lon="9.6851168">
        <ele>482.7192383</ele>
        <time>2009-01-31T11:39:18Z</time>
      </trkpt>
      <trkpt lat="45.9437737" lon="9.6849245">
        <ele>482.2385254</ele>
        <time>2009-01-31T11:39:22Z</time>
      </trkpt>
      <trkpt lat="45.9436290" lon="9.6845663">
        <ele>481.7578125</ele>
        <time>2009-01-31T11:39:28Z</time>
      </trkpt>
      <trkpt lat="45.9435723" lon="9.6843702">
        <ele>481.2772217</ele>
        <time>2009-01-31T11:39:31Z</time>
      </trkpt>
      <trkpt lat="45.9435336" lon="9.6841801">
        <ele>481.2772217</ele>
        <time>2009-01-31T11:39:34Z</time>
      </trkpt>
      <trkpt lat="45.9434923" lon="9.6839031">
        <ele>480.3159180</ele>
        <time>2009-01-31T11:39:38Z</time>
      </trkpt>
      <trkpt lat="45.9435011" lon="9.6831675">
        <ele>479.8350830</ele>
        <time>2009-01-31T11:39:51Z</time>
      </trkpt>
      <trkpt lat="45.9435047" lon="9.6831413">
        <ele>479.8350830</ele>
        <time>2009-01-31T11:40:08Z</time>
      </trkpt>
      <trkpt lat="45.9435544" lon="9.6828222">
        <ele>479.3544922</ele>
        <time>2009-01-31T11:42:00Z</time>
      </trkpt>
      <trkpt lat="45.9436949" lon="9.6820211">
        <ele>477.9124756</ele>
        <time>2009-01-31T11:42:12Z</time>
      </trkpt>
      <trkpt lat="45.9438250" lon="9.6810949">
        <ele>476.9512939</ele>
        <time>2009-01-31T11:42:26Z</time>
      </trkpt>
      <trkpt lat="45.9438238" lon="9.6810211">
        <ele>476.9512939</ele>
        <time>2009-01-31T11:42:27Z</time>
      </trkpt>
      <trkpt lat="45.9437717" lon="9.6805136">
        <ele>475.9898682</ele>
        <time>2009-01-31T11:42:35Z</time>
      </trkpt>
      <trkpt lat="45.9434973" lon="9.6797606">
        <ele>474.5479736</ele>
        <time>2009-01-31T11:42:47Z</time>
      </trkpt>
      <trkpt lat="45.9430934" lon="9.6788775">
        <ele>472.1446533</ele>
        <time>2009-01-31T11:43:03Z</time>
      </trkpt>
      <trkpt lat="45.9430183" lon="9.6787022">
        <ele>472.6253662</ele>
        <time>2009-01-31T11:43:06Z</time>
      </trkpt>
      <trkpt lat="45.9429316" lon="9.6784724">
        <ele>472.1446533</ele>
        <time>2009-01-31T11:43:10Z</time>
      </trkpt>
      <trkpt lat="45.9428194" lon="9.6777365">
        <ele>471.6639404</ele>
        <time>2009-01-31T11:43:24Z</time>
      </trkpt>
      <trkpt lat="45.9428077" lon="9.6773702">
        <ele>471.1833496</ele>
        <time>2009-01-31T11:43:33Z</time>
      </trkpt>
      <trkpt lat="45.9427814" lon="9.6770745">
        <ele>470.7026367</ele>
        <time>2009-01-31T11:43:38Z</time>
      </trkpt>
      <trkpt lat="45.9426569" lon="9.6764726">
        <ele>470.2219238</ele>
        <time>2009-01-31T11:43:47Z</time>
      </trkpt>
      <trkpt lat="45.9422692" lon="9.6756843">
        <ele>468.7800293</ele>
        <time>2009-01-31T11:44:02Z</time>
      </trkpt>
      <trkpt lat="45.9422393" lon="9.6756354">
        <ele>468.7800293</ele>
        <time>2009-01-31T11:44:03Z</time>
      </trkpt>
      <trkpt lat="45.9417986" lon="9.6747372">
        <ele>468.2993164</ele>
        <time>2009-01-31T11:44:20Z</time>
      </trkpt>
      <trkpt lat="45.9413125" lon="9.6738855">
        <ele>468.7800293</ele>
        <time>2009-01-31T11:44:38Z</time>
      </trkpt>
      <trkpt lat="45.9409055" lon="9.6730458">
        <ele>469.2607422</ele>
        <time>2009-01-31T11:44:56Z</time>
      </trkpt>
      <trkpt lat="45.9403778" lon="9.6722278">
        <ele>467.3381348</ele>
        <time>2009-01-31T11:45:15Z</time>
      </trkpt>
      <trkpt lat="45.9397993" lon="9.6715959">
        <ele>467.8187256</ele>
        <time>2009-01-31T11:45:33Z</time>
      </trkpt>
      <trkpt lat="45.9391161" lon="9.6708344">
        <ele>466.3767090</ele>
        <time>2009-01-31T11:45:52Z</time>
      </trkpt>
      <trkpt lat="45.9388410" lon="9.6705287">
        <ele>465.8961182</ele>
        <time>2009-01-31T11:46:00Z</time>
      </trkpt>
      <trkpt lat="45.9382653" lon="9.6699048">
        <ele>464.9348145</ele>
        <time>2009-01-31T11:46:16Z</time>
      </trkpt>
      <trkpt lat="45.9376139" lon="9.6691786">
        <ele>463.4927979</ele>
        <time>2009-01-31T11:46:33Z</time>
      </trkpt>
      <trkpt lat="45.9368658" lon="9.6683917">
        <ele>462.0507813</ele>
        <time>2009-01-31T11:46:51Z</time>
      </trkpt>
      <trkpt lat="45.9361680" lon="9.6679031">
        <ele>460.1281738</ele>
        <time>2009-01-31T11:47:07Z</time>
      </trkpt>
      <trkpt lat="45.9357306" lon="9.6674787">
        <ele>459.1668701</ele>
        <time>2009-01-31T11:47:17Z</time>
      </trkpt>
      <trkpt lat="45.9353940" lon="9.6671288">
        <ele>458.6861572</ele>
        <time>2009-01-31T11:47:25Z</time>
      </trkpt>
      <trkpt lat="45.9349791" lon="9.6669773">
        <ele>455.3215332</ele>
        <time>2009-01-31T11:47:33Z</time>
      </trkpt>
      <trkpt lat="45.9348425" lon="9.6669668">
        <ele>454.8408203</ele>
        <time>2009-01-31T11:47:35Z</time>
      </trkpt>
      <trkpt lat="45.9342458" lon="9.6669674">
        <ele>452.4376221</ele>
        <time>2009-01-31T11:47:45Z</time>
      </trkpt>
      <trkpt lat="45.9342456" lon="9.6671477">
        <ele>452.4376221</ele>
        <time>2009-01-31T11:47:51Z</time>
      </trkpt>
      <trkpt lat="45.9343064" lon="9.6672477">
        <ele>452.4376221</ele>
        <time>2009-01-31T11:47:54Z</time>
      </trkpt>
      <trkpt lat="45.9342747" lon="9.6674341">
        <ele>452.9182129</ele>
        <time>2009-01-31T11:48:01Z</time>
      </trkpt>
      <trkpt lat="45.9342458" lon="9.6675554">
        <ele>455.3215332</ele>
        <time>2009-01-31T11:48:07Z</time>
      </trkpt>
      <trkpt lat="45.9342085" lon="9.6677147">
        <ele>451.9570313</ele>
        <time>2009-01-31T11:48:13Z</time>
      </trkpt>
      <trkpt lat="45.9341830" lon="9.6677450">
        <ele>450.9956055</ele>
        <time>2009-01-31T11:48:14Z</time>
      </trkpt>
      <trkpt lat="45.9340603" lon="9.6677863">
        <ele>450.0344238</ele>
        <time>2009-01-31T11:48:17Z</time>
      </trkpt>
      <trkpt lat="45.9339585" lon="9.6677984">
        <ele>448.5924072</ele>
        <time>2009-01-31T11:48:19Z</time>
      </trkpt>
      <trkpt lat="45.9338540" lon="9.6677988">
        <ele>448.5924072</ele>
        <time>2009-01-31T11:48:21Z</time>
      </trkpt>
      <trkpt lat="45.9332446" lon="9.6680539">
        <ele>449.0729980</ele>
        <time>2009-01-31T11:48:36Z</time>
      </trkpt>
      <trkpt lat="45.9327182" lon="9.6684533">
        <ele>448.5924072</ele>
        <time>2009-01-31T11:48:54Z</time>
      </trkpt>
      <trkpt lat="45.9323240" lon="9.6687372">
        <ele>449.5537109</ele>
        <time>2009-01-31T11:49:04Z</time>
      </trkpt>
      <trkpt lat="45.9318999" lon="9.6690682">
        <ele>452.4376221</ele>
        <time>2009-01-31T11:49:16Z</time>
      </trkpt>
      <trkpt lat="45.9317845" lon="9.6690981">
        <ele>451.9570313</ele>
        <time>2009-01-31T11:49:19Z</time>
      </trkpt>
      <trkpt lat="45.9316267" lon="9.6690710">
        <ele>451.9570313</ele>
        <time>2009-01-31T11:49:23Z</time>
      </trkpt>
      <trkpt lat="45.9314950" lon="9.6689618">
        <ele>450.9956055</ele>
        <time>2009-01-31T11:49:26Z</time>
      </trkpt>
      <trkpt lat="45.9312526" lon="9.6688971">
        <ele>450.9956055</ele>
        <time>2009-01-31T11:49:31Z</time>
      </trkpt>
      <trkpt lat="45.9311469" lon="9.6689079">
        <ele>450.9956055</ele>
        <time>2009-01-31T11:49:33Z</time>
      </trkpt>
      <trkpt lat="45.9309432" lon="9.6688119">
        <ele>450.9956055</ele>
        <time>2009-01-31T11:49:37Z</time>
      </trkpt>
      <trkpt lat="45.9307240" lon="9.6687483">
        <ele>450.9956055</ele>
        <time>2009-01-31T11:49:42Z</time>
      </trkpt>
      <trkpt lat="45.9305482" lon="9.6687756">
        <ele>448.1118164</ele>
        <time>2009-01-31T11:49:45Z</time>
      </trkpt>
      <trkpt lat="45.9301511" lon="9.6688085">
        <ele>443.7857666</ele>
        <time>2009-01-31T11:49:50Z</time>
      </trkpt>
      <trkpt lat="45.9294515" lon="9.6689492">
        <ele>445.2276611</ele>
        <time>2009-01-31T11:50:01Z</time>
      </trkpt>
      <trkpt lat="45.9292698" lon="9.6689999">
        <ele>444.7470703</ele>
        <time>2009-01-31T11:50:04Z</time>
      </trkpt>
      <trkpt lat="45.9287538" lon="9.6692594">
        <ele>443.7857666</ele>
        <time>2009-01-31T11:50:13Z</time>
      </trkpt>
      <trkpt lat="45.9284796" lon="9.6693692">
        <ele>443.3050537</ele>
        <time>2009-01-31T11:50:18Z</time>
      </trkpt>
      <trkpt lat="45.9276824" lon="9.6693283">
        <ele>443.7857666</ele>
        <time>2009-01-31T11:50:32Z</time>
      </trkpt>
      <trkpt lat="45.9269808" lon="9.6691990">
        <ele>441.3824463</ele>
        <time>2009-01-31T11:50:44Z</time>
      </trkpt>
      <trkpt lat="45.9266335" lon="9.6691643">
        <ele>442.3438721</ele>
        <time>2009-01-31T11:50:49Z</time>
      </trkpt>
      <trkpt lat="45.9256629" lon="9.6688364">
        <ele>441.3824463</ele>
        <time>2009-01-31T11:51:04Z</time>
      </trkpt>
      <trkpt lat="45.9248589" lon="9.6683217">
        <ele>440.9018555</ele>
        <time>2009-01-31T11:51:18Z</time>
      </trkpt>
      <trkpt lat="45.9246546" lon="9.6681563">
        <ele>440.9018555</ele>
        <time>2009-01-31T11:51:22Z</time>
      </trkpt>
      <trkpt lat="45.9244575" lon="9.6681490">
        <ele>441.8631592</ele>
        <time>2009-01-31T11:51:26Z</time>
      </trkpt>
      <trkpt lat="45.9243978" lon="9.6680436">
        <ele>444.7470703</ele>
        <time>2009-01-31T11:51:33Z</time>
      </trkpt>
      <trkpt lat="45.9243994" lon="9.6680192">
        <ele>445.2276611</ele>
        <time>2009-01-31T11:51:34Z</time>
      </trkpt>
      <trkpt lat="45.9244870" lon="9.6675700">
        <ele>446.1890869</ele>
        <time>2009-01-31T11:51:49Z</time>
      </trkpt>
      <trkpt lat="45.9245256" lon="9.6673668">
        <ele>446.1890869</ele>
        <time>2009-01-31T11:51:55Z</time>
      </trkpt>
      <trkpt lat="45.9243030" lon="9.6671203">
        <ele>445.2276611</ele>
        <time>2009-01-31T11:52:04Z</time>
      </trkpt>
      <trkpt lat="45.9241758" lon="9.6670618">
        <ele>444.7470703</ele>
        <time>2009-01-31T11:52:07Z</time>
      </trkpt>
      <trkpt lat="45.9239754" lon="9.6670729">
        <ele>444.7470703</ele>
        <time>2009-01-31T11:52:11Z</time>
      </trkpt>
      <trkpt lat="45.9235731" lon="9.6672027">
        <ele>442.8244629</ele>
        <time>2009-01-31T11:52:19Z</time>
      </trkpt>
      <trkpt lat="45.9226668" lon="9.6672058">
        <ele>441.3824463</ele>
        <time>2009-01-31T11:52:35Z</time>
      </trkpt>
      <trkpt lat="45.9213116" lon="9.6669859">
        <ele>439.9404297</ele>
        <time>2009-01-31T11:52:56Z</time>
      </trkpt>
      <trkpt lat="45.9200108" lon="9.6667556">
        <ele>439.4597168</ele>
        <time>2009-01-31T11:53:15Z</time>
      </trkpt>
      <trkpt lat="45.9186305" lon="9.6665266">
        <ele>438.0178223</ele>
        <time>2009-01-31T11:53:36Z</time>
      </trkpt>
      <trkpt lat="45.9174867" lon="9.6663147">
        <ele>437.0565186</ele>
        <time>2009-01-31T11:53:54Z</time>
      </trkpt>
      <trkpt lat="45.9163936" lon="9.6661738">
        <ele>438.0178223</ele>
        <time>2009-01-31T11:54:14Z</time>
      </trkpt>
      <trkpt lat="45.9154548" lon="9.6661446">
        <ele>437.0565186</ele>
        <time>2009-01-31T11:54:31Z</time>
      </trkpt>
      <trkpt lat="45.9145346" lon="9.6661714">
        <ele>437.0565186</ele>
        <time>2009-01-31T11:54:48Z</time>
      </trkpt>
      <trkpt lat="45.9144216" lon="9.6661700">
        <ele>437.5371094</ele>
        <time>2009-01-31T11:54:50Z</time>
      </trkpt>
      <trkpt lat="45.9142689" lon="9.6662032">
        <ele>438.0178223</ele>
        <time>2009-01-31T11:54:53Z</time>
      </trkpt>
      <trkpt lat="45.9141318" lon="9.6661155">
        <ele>438.0178223</ele>
        <time>2009-01-31T11:54:57Z</time>
      </trkpt>
      <trkpt lat="45.9134908" lon="9.6658446">
        <ele>435.6145020</ele>
        <time>2009-01-31T11:55:10Z</time>
      </trkpt>
      <trkpt lat="45.9127794" lon="9.6656242">
        <ele>436.0952148</ele>
        <time>2009-01-31T11:55:22Z</time>
      </trkpt>
      <trkpt lat="45.9124323" lon="9.6656029">
        <ele>438.4985352</ele>
        <time>2009-01-31T11:55:31Z</time>
      </trkpt>
      <trkpt lat="45.9123132" lon="9.6656294">
        <ele>438.4985352</ele>
        <time>2009-01-31T11:55:34Z</time>
      </trkpt>
      <trkpt lat="45.9120926" lon="9.6657185">
        <ele>438.0178223</ele>
        <time>2009-01-31T11:55:39Z</time>
      </trkpt>
      <trkpt lat="45.9117916" lon="9.6656623">
        <ele>438.0178223</ele>
        <time>2009-01-31T11:55:50Z</time>
      </trkpt>
      <trkpt lat="45.9112130" lon="9.6653443">
        <ele>438.0178223</ele>
        <time>2009-01-31T11:56:16Z</time>
      </trkpt>
      <trkpt lat="45.9101757" lon="9.6643469">
        <ele>437.0565186</ele>
        <time>2009-01-31T11:56:24Z</time>
      </trkpt>
      <trkpt lat="45.9100684" lon="9.6637944">
        <ele>437.5371094</ele>
        <time>2009-01-31T11:56:31Z</time>
      </trkpt>
      <trkpt lat="45.9097934" lon="9.6636010">
        <ele>437.0565186</ele>
        <time>2009-01-31T11:56:36Z</time>
      </trkpt>
      <trkpt lat="45.9093714" lon="9.6621243">
        <ele>438.0178223</ele>
        <time>2009-01-31T11:56:57Z</time>
      </trkpt>
      <trkpt lat="45.9093034" lon="9.6618387">
        <ele>437.5371094</ele>
        <time>2009-01-31T11:57:01Z</time>
      </trkpt>
      <trkpt lat="45.9089749" lon="9.6606789">
        <ele>437.5371094</ele>
        <time>2009-01-31T11:57:17Z</time>
      </trkpt>
      <trkpt lat="45.9089603" lon="9.6603650">
        <ele>441.3824463</ele>
        <time>2009-01-31T11:57:22Z</time>
      </trkpt>
      <trkpt lat="45.9089649" lon="9.6603193">
        <ele>441.3824463</ele>
        <time>2009-01-31T11:57:23Z</time>
      </trkpt>
      <trkpt lat="45.9089801" lon="9.6602056">
        <ele>441.8631592</ele>
        <time>2009-01-31T11:57:26Z</time>
      </trkpt>
      <trkpt lat="45.9088343" lon="9.6600130">
        <ele>440.9018555</ele>
        <time>2009-01-31T11:57:31Z</time>
      </trkpt>
      <trkpt lat="45.9086113" lon="9.6595584">
        <ele>437.5371094</ele>
        <time>2009-01-31T11:57:38Z</time>
      </trkpt>
      <trkpt lat="45.9081740" lon="9.6588816">
        <ele>437.0565186</ele>
        <time>2009-01-31T11:57:49Z</time>
      </trkpt>
      <trkpt lat="45.9079454" lon="9.6587652">
        <ele>436.5759277</ele>
        <time>2009-01-31T11:57:53Z</time>
      </trkpt>
      <trkpt lat="45.9073079" lon="9.6585886">
        <ele>435.1339111</ele>
        <time>2009-01-31T11:58:04Z</time>
      </trkpt>
      <trkpt lat="45.9066414" lon="9.6585767">
        <ele>434.6533203</ele>
        <time>2009-01-31T11:58:15Z</time>
      </trkpt>
      <trkpt lat="45.9063486" lon="9.6586555">
        <ele>435.1339111</ele>
        <time>2009-01-31T11:58:21Z</time>
      </trkpt>
      <trkpt lat="45.9062173" lon="9.6586990">
        <ele>437.5371094</ele>
        <time>2009-01-31T11:58:25Z</time>
      </trkpt>
      <trkpt lat="45.9061601" lon="9.6590029">
        <ele>437.5371094</ele>
        <time>2009-01-31T11:58:33Z</time>
      </trkpt>
      <trkpt lat="45.9061337" lon="9.6590268">
        <ele>437.5371094</ele>
        <time>2009-01-31T11:58:34Z</time>
      </trkpt>
      <trkpt lat="45.9059544" lon="9.6591369">
        <ele>437.5371094</ele>
        <time>2009-01-31T11:58:39Z</time>
      </trkpt>
      <trkpt lat="45.9058610" lon="9.6592973">
        <ele>436.5759277</ele>
        <time>2009-01-31T11:58:43Z</time>
      </trkpt>
      <trkpt lat="45.9058318" lon="9.6594023">
        <ele>435.6145020</ele>
        <time>2009-01-31T11:58:45Z</time>
      </trkpt>
      <trkpt lat="45.9056672" lon="9.6597733">
        <ele>431.7691650</ele>
        <time>2009-01-31T11:58:50Z</time>
      </trkpt>
      <trkpt lat="45.9055138" lon="9.6601616">
        <ele>427.9239502</ele>
        <time>2009-01-31T11:58:54Z</time>
      </trkpt>
      <trkpt lat="45.9054775" lon="9.6602559">
        <ele>427.9239502</ele>
        <time>2009-01-31T11:58:55Z</time>
      </trkpt>
      <trkpt lat="45.9053782" lon="9.6605503">
        <ele>427.4433594</ele>
        <time>2009-01-31T11:58:59Z</time>
      </trkpt>
      <trkpt lat="45.9053573" lon="9.6606946">
        <ele>426.4820557</ele>
        <time>2009-01-31T11:59:01Z</time>
      </trkpt>
      <trkpt lat="45.9053244" lon="9.6608191">
        <ele>426.9627686</ele>
        <time>2009-01-31T11:59:03Z</time>
      </trkpt>
      <trkpt lat="45.9052859" lon="9.6609398">
        <ele>426.4820557</ele>
        <time>2009-01-31T11:59:05Z</time>
      </trkpt>
      <trkpt lat="45.9052274" lon="9.6611345">
        <ele>426.0013428</ele>
        <time>2009-01-31T11:59:08Z</time>
      </trkpt>
      <trkpt lat="45.9048640" lon="9.6613708">
        <ele>424.0787354</ele>
        <time>2009-01-31T11:59:15Z</time>
      </trkpt>
      <trkpt lat="45.9046513" lon="9.6612653">
        <ele>423.5980225</ele>
        <time>2009-01-31T11:59:18Z</time>
      </trkpt>
      <trkpt lat="45.9037197" lon="9.6610824">
        <ele>422.1560059</ele>
        <time>2009-01-31T11:59:30Z</time>
      </trkpt>
      <trkpt lat="45.9028468" lon="9.6604903">
        <ele>422.1560059</ele>
        <time>2009-01-31T11:59:44Z</time>
      </trkpt>
      <trkpt lat="45.9019556" lon="9.6598181">
        <ele>423.1174316</ele>
        <time>2009-01-31T12:00:00Z</time>
      </trkpt>
      <trkpt lat="45.9015766" lon="9.6596472">
        <ele>422.6367188</ele>
        <time>2009-01-31T12:00:07Z</time>
      </trkpt>
      <trkpt lat="45.9013563" lon="9.6594489">
        <ele>423.5980225</ele>
        <time>2009-01-31T12:00:12Z</time>
      </trkpt>
      <trkpt lat="45.9011830" lon="9.6592025">
        <ele>424.0787354</ele>
        <time>2009-01-31T12:00:17Z</time>
      </trkpt>
      <trkpt lat="45.9004319" lon="9.6586441">
        <ele>422.1560059</ele>
        <time>2009-01-31T12:00:32Z</time>
      </trkpt>
      <trkpt lat="45.8995407" lon="9.6582813">
        <ele>423.5980225</ele>
        <time>2009-01-31T12:00:47Z</time>
      </trkpt>
      <trkpt lat="45.8989816" lon="9.6579032">
        <ele>425.0401611</ele>
        <time>2009-01-31T12:01:00Z</time>
      </trkpt>
      <trkpt lat="45.8988958" lon="9.6578575">
        <ele>425.0401611</ele>
        <time>2009-01-31T12:01:02Z</time>
      </trkpt>
      <trkpt lat="45.8986318" lon="9.6578888">
        <ele>424.0787354</ele>
        <time>2009-01-31T12:01:10Z</time>
      </trkpt>
      <trkpt lat="45.8985851" lon="9.6578596">
        <ele>424.0787354</ele>
        <time>2009-01-31T12:01:12Z</time>
      </trkpt>
      <trkpt lat="45.8985381" lon="9.6578098">
        <ele>423.1174316</ele>
        <time>2009-01-31T12:01:14Z</time>
      </trkpt>
      <trkpt lat="45.8983870" lon="9.6577762">
        <ele>419.2722168</ele>
        <time>2009-01-31T12:01:17Z</time>
      </trkpt>
      <trkpt lat="45.8980056" lon="9.6577261">
        <ele>416.3881836</ele>
        <time>2009-01-31T12:01:22Z</time>
      </trkpt>
      <trkpt lat="45.8975249" lon="9.6576739">
        <ele>416.3881836</ele>
        <time>2009-01-31T12:01:29Z</time>
      </trkpt>
      <trkpt lat="45.8971544" lon="9.6575319">
        <ele>416.8688965</ele>
        <time>2009-01-31T12:01:36Z</time>
      </trkpt>
      <trkpt lat="45.8970687" lon="9.6574868">
        <ele>417.3496094</ele>
        <time>2009-01-31T12:01:38Z</time>
      </trkpt>
      <trkpt lat="45.8966035" lon="9.6571061">
        <ele>416.8688965</ele>
        <time>2009-01-31T12:01:52Z</time>
      </trkpt>
      <trkpt lat="45.8963914" lon="9.6569497">
        <ele>416.8688965</ele>
        <time>2009-01-31T12:01:58Z</time>
      </trkpt>
      <trkpt lat="45.8962501" lon="9.6568023">
        <ele>416.8688965</ele>
        <time>2009-01-31T12:02:02Z</time>
      </trkpt>
      <trkpt lat="45.8955634" lon="9.6561153">
        <ele>416.8688965</ele>
        <time>2009-01-31T12:02:20Z</time>
      </trkpt>
      <trkpt lat="45.8948654" lon="9.6554092">
        <ele>416.3881836</ele>
        <time>2009-01-31T12:02:37Z</time>
      </trkpt>
      <trkpt lat="45.8942138" lon="9.6547933">
        <ele>414.9461670</ele>
        <time>2009-01-31T12:02:53Z</time>
      </trkpt>
      <trkpt lat="45.8945886" lon="9.6551514">
        <ele>413.5042725</ele>
        <time>2009-01-31T12:03:14Z</time>
      </trkpt>
      <trkpt lat="45.8945886" lon="9.6551514">
        <ele>413.5042725</ele>
        <time>2009-01-31T12:03:30Z</time>
      </trkpt>
      <trkpt lat="45.8915883" lon="9.6543149">
        <ele>412.5428467</ele>
        <time>2009-01-31T12:03:36Z</time>
      </trkpt>
      <trkpt lat="45.8913100" lon="9.6539035">
        <ele>411.1009521</ele>
        <time>2009-01-31T12:03:49Z</time>
      </trkpt>
      <trkpt lat="45.8908485" lon="9.6532226">
        <ele>410.6202393</ele>
        <time>2009-01-31T12:04:10Z</time>
      </trkpt>
      <trkpt lat="45.8891546" lon="9.6536902">
        <ele>409.6590576</ele>
        <time>2009-01-31T12:04:15Z</time>
      </trkpt>
      <trkpt lat="45.8883267" lon="9.6528839">
        <ele>409.6590576</ele>
        <time>2009-01-31T12:04:31Z</time>
      </trkpt>
      <trkpt lat="45.8880593" lon="9.6530426">
        <ele>409.1783447</ele>
        <time>2009-01-31T12:04:34Z</time>
      </trkpt>
      <trkpt lat="45.8873363" lon="9.6531062">
        <ele>408.2170410</ele>
        <time>2009-01-31T12:04:46Z</time>
      </trkpt>
      <trkpt lat="45.8863330" lon="9.6531247">
        <ele>407.2556152</ele>
        <time>2009-01-31T12:05:02Z</time>
      </trkpt>
      <trkpt lat="45.8852343" lon="9.6530713">
        <ele>406.2943115</ele>
        <time>2009-01-31T12:05:19Z</time>
      </trkpt>
      <trkpt lat="45.8849270" lon="9.6529958">
        <ele>407.2556152</ele>
        <time>2009-01-31T12:05:24Z</time>
      </trkpt>
      <trkpt lat="45.8846412" lon="9.6528274">
        <ele>406.7749023</ele>
        <time>2009-01-31T12:05:29Z</time>
      </trkpt>
      <trkpt lat="45.8840004" lon="9.6526355">
        <ele>404.8522949</ele>
        <time>2009-01-31T12:05:39Z</time>
      </trkpt>
      <trkpt lat="45.8830396" lon="9.6523989">
        <ele>403.8911133</ele>
        <time>2009-01-31T12:05:54Z</time>
      </trkpt>
      <trkpt lat="45.8825691" lon="9.6523114">
        <ele>403.4104004</ele>
        <time>2009-01-31T12:06:01Z</time>
      </trkpt>
      <trkpt lat="45.8815355" lon="9.6521586">
        <ele>402.4490967</ele>
        <time>2009-01-31T12:06:17Z</time>
      </trkpt>
      <trkpt lat="45.8811516" lon="9.6521252">
        <ele>401.9685059</ele>
        <time>2009-01-31T12:06:23Z</time>
      </trkpt>
      <trkpt lat="45.8804200" lon="9.6516424">
        <ele>401.4877930</ele>
        <time>2009-01-31T12:06:36Z</time>
      </trkpt>
      <trkpt lat="45.8795167" lon="9.6509844">
        <ele>399.5650635</ele>
        <time>2009-01-31T12:06:52Z</time>
      </trkpt>
      <trkpt lat="45.8791865" lon="9.6509226">
        <ele>398.1231689</ele>
        <time>2009-01-31T12:06:57Z</time>
      </trkpt>
      <trkpt lat="45.8782682" lon="9.6512444">
        <ele>396.2005615</ele>
        <time>2009-01-31T12:07:10Z</time>
      </trkpt>
      <trkpt lat="45.8772971" lon="9.6514634">
        <ele>393.7972412</ele>
        <time>2009-01-31T12:07:24Z</time>
      </trkpt>
      <trkpt lat="45.8767178" lon="9.6515981">
        <ele>392.8359375</ele>
        <time>2009-01-31T12:07:35Z</time>
      </trkpt>
      <trkpt lat="45.8767027" lon="9.6515908">
        <ele>392.8359375</ele>
        <time>2009-01-31T12:07:36Z</time>
      </trkpt>
      <trkpt lat="45.8765096" lon="9.6515155">
        <ele>391.3937988</ele>
        <time>2009-01-31T12:07:49Z</time>
      </trkpt>
      <trkpt lat="45.8764858" lon="9.6515212">
        <ele>390.9132080</ele>
        <time>2009-01-31T12:07:52Z</time>
      </trkpt>
      <trkpt lat="45.8760477" lon="9.6512282">
        <ele>388.9906006</ele>
        <time>2009-01-31T12:08:04Z</time>
      </trkpt>
      <trkpt lat="45.8760115" lon="9.6512002">
        <ele>389.4711914</ele>
        <time>2009-01-31T12:08:05Z</time>
      </trkpt>
      <trkpt lat="45.8752443" lon="9.6510925">
        <ele>389.9519043</ele>
        <time>2009-01-31T12:08:10Z</time>
      </trkpt>
      <trkpt lat="45.8748394" lon="9.6509831">
        <ele>391.3937988</ele>
        <time>2009-01-31T12:08:22Z</time>
      </trkpt>
      <trkpt lat="45.8742021" lon="9.6509643">
        <ele>391.8745117</ele>
        <time>2009-01-31T12:08:41Z</time>
      </trkpt>
      <trkpt lat="45.8741377" lon="9.6509598">
        <ele>391.8745117</ele>
        <time>2009-01-31T12:08:43Z</time>
      </trkpt>
      <trkpt lat="45.8739872" lon="9.6508558">
        <ele>392.3553467</ele>
        <time>2009-01-31T12:08:49Z</time>
      </trkpt>
      <trkpt lat="45.8734057" lon="9.6507634">
        <ele>392.3553467</ele>
        <time>2009-01-31T12:09:05Z</time>
      </trkpt>
      <trkpt lat="45.8728394" lon="9.6507666">
        <ele>391.8745117</ele>
        <time>2009-01-31T12:09:19Z</time>
      </trkpt>
      <trkpt lat="45.8720577" lon="9.6507908">
        <ele>390.9132080</ele>
        <time>2009-01-31T12:09:36Z</time>
      </trkpt>
      <trkpt lat="45.8719615" lon="9.6508001">
        <ele>391.3937988</ele>
        <time>2009-01-31T12:09:38Z</time>
      </trkpt>
      <trkpt lat="45.8718011" lon="9.6508486">
        <ele>391.3937988</ele>
        <time>2009-01-31T12:09:42Z</time>
      </trkpt>
      <trkpt lat="45.8713076" lon="9.6510407">
        <ele>391.8745117</ele>
        <time>2009-01-31T12:09:55Z</time>
      </trkpt>
      <trkpt lat="45.8707943" lon="9.6513876">
        <ele>392.3553467</ele>
        <time>2009-01-31T12:10:09Z</time>
      </trkpt>
      <trkpt lat="45.8707675" lon="9.6514221">
        <ele>392.3553467</ele>
        <time>2009-01-31T12:10:20Z</time>
      </trkpt>
      <trkpt lat="45.8706846" lon="9.6514684">
        <ele>392.3553467</ele>
        <time>2009-01-31T12:11:31Z</time>
      </trkpt>
      <trkpt lat="45.8702943" lon="9.6517128">
        <ele>391.3937988</ele>
        <time>2009-01-31T12:11:42Z</time>
      </trkpt>
      <trkpt lat="45.8700673" lon="9.6518768">
        <ele>391.3937988</ele>
        <time>2009-01-31T12:11:47Z</time>
      </trkpt>
      <trkpt lat="45.8693868" lon="9.6523693">
        <ele>390.9132080</ele>
        <time>2009-01-31T12:12:02Z</time>
      </trkpt>
      <trkpt lat="45.8692381" lon="9.6524702">
        <ele>390.4326172</ele>
        <time>2009-01-31T12:12:05Z</time>
      </trkpt>
      <trkpt lat="45.8684602" lon="9.6532656">
        <ele>389.4711914</ele>
        <time>2009-01-31T12:12:21Z</time>
      </trkpt>
      <trkpt lat="45.8678756" lon="9.6538169">
        <ele>388.5100098</ele>
        <time>2009-01-31T12:12:32Z</time>
      </trkpt>
      <trkpt lat="45.8672808" lon="9.6548151">
        <ele>387.0679932</ele>
        <time>2009-01-31T12:12:47Z</time>
      </trkpt>
      <trkpt lat="45.8671340" lon="9.6550972">
        <ele>386.5874023</ele>
        <time>2009-01-31T12:12:51Z</time>
      </trkpt>
      <trkpt lat="45.8668833" lon="9.6556068">
        <ele>387.5485840</ele>
        <time>2009-01-31T12:13:01Z</time>
      </trkpt>
      <trkpt lat="45.8668396" lon="9.6557036">
        <ele>387.0679932</ele>
        <time>2009-01-31T12:13:03Z</time>
      </trkpt>
      <trkpt lat="45.8665834" lon="9.6561914">
        <ele>386.1066895</ele>
        <time>2009-01-31T12:13:12Z</time>
      </trkpt>
      <trkpt lat="45.8663543" lon="9.6563863">
        <ele>386.1066895</ele>
        <time>2009-01-31T12:13:16Z</time>
      </trkpt>
      <trkpt lat="45.8662485" lon="9.6564688">
        <ele>386.1066895</ele>
        <time>2009-01-31T12:13:18Z</time>
      </trkpt>
      <trkpt lat="45.8653589" lon="9.6570050">
        <ele>384.6647949</ele>
        <time>2009-01-31T12:13:34Z</time>
      </trkpt>
      <trkpt lat="45.8646665" lon="9.6574563">
        <ele>383.7032471</ele>
        <time>2009-01-31T12:13:47Z</time>
      </trkpt>
      <trkpt lat="45.8639207" lon="9.6579085">
        <ele>382.7420654</ele>
        <time>2009-01-31T12:14:01Z</time>
      </trkpt>
      <trkpt lat="45.8632045" lon="9.6584549">
        <ele>381.7806396</ele>
        <time>2009-01-31T12:14:16Z</time>
      </trkpt>
      <trkpt lat="45.8624931" lon="9.6591582">
        <ele>380.3387451</ele>
        <time>2009-01-31T12:14:31Z</time>
      </trkpt>
      <trkpt lat="45.8618408" lon="9.6598076">
        <ele>379.3774414</ele>
        <time>2009-01-31T12:14:44Z</time>
      </trkpt>
      <trkpt lat="45.8617177" lon="9.6600398">
        <ele>379.3774414</ele>
        <time>2009-01-31T12:14:48Z</time>
      </trkpt>
      <trkpt lat="45.8611772" lon="9.6606586">
        <ele>378.8968506</ele>
        <time>2009-01-31T12:14:58Z</time>
      </trkpt>
      <trkpt lat="45.8608418" lon="9.6616744">
        <ele>377.9354248</ele>
        <time>2009-01-31T12:15:10Z</time>
      </trkpt>
      <trkpt lat="45.8607421" lon="9.6619022">
        <ele>377.9354248</ele>
        <time>2009-01-31T12:15:13Z</time>
      </trkpt>
      <trkpt lat="45.8602190" lon="9.6625182">
        <ele>378.8968506</ele>
        <time>2009-01-31T12:15:26Z</time>
      </trkpt>
      <trkpt lat="45.8599258" lon="9.6626550">
        <ele>378.8968506</ele>
        <time>2009-01-31T12:15:37Z</time>
      </trkpt>
      <trkpt lat="45.8598574" lon="9.6626700">
        <ele>378.8968506</ele>
        <time>2009-01-31T12:15:39Z</time>
      </trkpt>
      <trkpt lat="45.8596359" lon="9.6626977">
        <ele>378.8968506</ele>
        <time>2009-01-31T12:15:44Z</time>
      </trkpt>
      <trkpt lat="45.8594126" lon="9.6626544">
        <ele>378.8968506</ele>
        <time>2009-01-31T12:15:49Z</time>
      </trkpt>
      <trkpt lat="45.8586653" lon="9.6624167">
        <ele>377.9354248</ele>
        <time>2009-01-31T12:16:04Z</time>
      </trkpt>
      <trkpt lat="45.8584126" lon="9.6625351">
        <ele>377.9354248</ele>
        <time>2009-01-31T12:16:11Z</time>
      </trkpt>
      <trkpt lat="45.8580801" lon="9.6629101">
        <ele>377.4548340</ele>
        <time>2009-01-31T12:16:22Z</time>
      </trkpt>
      <trkpt lat="45.8574926" lon="9.6629138">
        <ele>377.4548340</ele>
        <time>2009-01-31T12:16:26Z</time>
      </trkpt>
      <trkpt lat="45.8568872" lon="9.6634626">
        <ele>377.4548340</ele>
        <time>2009-01-31T12:16:40Z</time>
      </trkpt>
      <trkpt lat="45.8567976" lon="9.6635975">
        <ele>377.4548340</ele>
        <time>2009-01-31T12:16:44Z</time>
      </trkpt>
      <trkpt lat="45.8564379" lon="9.6624990">
        <ele>376.9742432</ele>
        <time>2009-01-31T12:17:07Z</time>
      </trkpt>
      <trkpt lat="45.8545605" lon="9.6642855">
        <ele>376.9742432</ele>
        <time>2009-01-31T12:17:22Z</time>
      </trkpt>
      <trkpt lat="45.8537719" lon="9.6645445">
        <ele>376.9742432</ele>
        <time>2009-01-31T12:17:37Z</time>
      </trkpt>
      <trkpt lat="45.8530615" lon="9.6647543">
        <ele>376.0128174</ele>
        <time>2009-01-31T12:17:53Z</time>
      </trkpt>
      <trkpt lat="45.8525535" lon="9.6649032">
        <ele>374.5708008</ele>
        <time>2009-01-31T12:18:04Z</time>
      </trkpt>
      <trkpt lat="45.8526240" lon="9.6649067">
        <ele>375.5321045</ele>
        <time>2009-01-31T12:18:10Z</time>
      </trkpt>
      <trkpt lat="45.8525707" lon="9.6647913">
        <ele>375.5321045</ele>
        <time>2009-01-31T12:18:15Z</time>
      </trkpt>
      <trkpt lat="45.8524758" lon="9.6647306">
        <ele>376.0128174</ele>
        <time>2009-01-31T12:18:21Z</time>
      </trkpt>
      <trkpt lat="45.8523491" lon="9.6646894">
        <ele>373.6094971</ele>
        <time>2009-01-31T12:18:27Z</time>
      </trkpt>
      <trkpt lat="45.8520650" lon="9.6648266">
        <ele>369.7642822</ele>
        <time>2009-01-31T12:18:32Z</time>
      </trkpt>
      <trkpt lat="45.8515540" lon="9.6651326">
        <ele>366.3995361</ele>
        <time>2009-01-31T12:18:40Z</time>
      </trkpt>
      <trkpt lat="45.8512896" lon="9.6652888">
        <ele>364.4769287</ele>
        <time>2009-01-31T12:18:44Z</time>
      </trkpt>
      <trkpt lat="45.8511945" lon="9.6653637">
        <ele>363.9963379</ele>
        <time>2009-01-31T12:18:46Z</time>
      </trkpt>
      <trkpt lat="45.8510216" lon="9.6655409">
        <ele>363.0350342</ele>
        <time>2009-01-31T12:18:54Z</time>
      </trkpt>
      <trkpt lat="45.8509422" lon="9.6656315">
        <ele>363.9963379</ele>
        <time>2009-01-31T12:18:57Z</time>
      </trkpt>
      <trkpt lat="45.8508700" lon="9.6656962">
        <ele>364.9576416</ele>
        <time>2009-01-31T12:19:01Z</time>
      </trkpt>
      <trkpt lat="45.8505787" lon="9.6658889">
        <ele>367.3609619</ele>
        <time>2009-01-31T12:19:12Z</time>
      </trkpt>
      <trkpt lat="45.8502883" lon="9.6661815">
        <ele>363.9963379</ele>
        <time>2009-01-31T12:19:22Z</time>
      </trkpt>
      <trkpt lat="45.8501765" lon="9.6662976">
        <ele>360.6317139</ele>
        <time>2009-01-31T12:19:24Z</time>
      </trkpt>
      <trkpt lat="45.8500463" lon="9.6664474">
        <ele>359.1896973</ele>
        <time>2009-01-31T12:19:26Z</time>
      </trkpt>
      <trkpt lat="45.8498655" lon="9.6666840">
        <ele>363.0350342</ele>
        <time>2009-01-31T12:19:29Z</time>
      </trkpt>
      <trkpt lat="45.8496997" lon="9.6669203">
        <ele>366.3995361</ele>
        <time>2009-01-31T12:19:33Z</time>
      </trkpt>
      <trkpt lat="45.8493990" lon="9.6673112">
        <ele>369.2836914</ele>
        <time>2009-01-31T12:19:44Z</time>
      </trkpt>
      <trkpt lat="45.8490126" lon="9.6677015">
        <ele>370.7255859</ele>
        <time>2009-01-31T12:19:58Z</time>
      </trkpt>
      <trkpt lat="45.8489080" lon="9.6678166">
        <ele>370.2448730</ele>
        <time>2009-01-31T12:20:01Z</time>
      </trkpt>
      <trkpt lat="45.8486506" lon="9.6679833">
        <ele>366.3995361</ele>
        <time>2009-01-31T12:20:06Z</time>
      </trkpt>
      <trkpt lat="45.8485220" lon="9.6680736">
        <ele>365.4383545</ele>
        <time>2009-01-31T12:20:08Z</time>
      </trkpt>
      <trkpt lat="45.8483890" lon="9.6681771">
        <ele>364.4769287</ele>
        <time>2009-01-31T12:20:10Z</time>
      </trkpt>
      <trkpt lat="45.8477767" lon="9.6685140">
        <ele>365.4383545</ele>
        <time>2009-01-31T12:20:21Z</time>
      </trkpt>
      <trkpt lat="45.8476645" lon="9.6685877">
        <ele>364.4769287</ele>
        <time>2009-01-31T12:20:23Z</time>
      </trkpt>
      <trkpt lat="45.8474651" lon="9.6687425">
        <ele>365.4383545</ele>
        <time>2009-01-31T12:20:28Z</time>
      </trkpt>
      <trkpt lat="45.8472460" lon="9.6688099">
        <ele>364.9576416</ele>
        <time>2009-01-31T12:20:33Z</time>
      </trkpt>
      <trkpt lat="45.8468299" lon="9.6688597">
        <ele>363.5157471</ele>
        <time>2009-01-31T12:20:40Z</time>
      </trkpt>
      <trkpt lat="45.8465887" lon="9.6688750">
        <ele>363.5157471</ele>
        <time>2009-01-31T12:20:44Z</time>
      </trkpt>
      <trkpt lat="45.8464201" lon="9.6688960">
        <ele>363.5157471</ele>
        <time>2009-01-31T12:20:47Z</time>
      </trkpt>
      <trkpt lat="45.8455665" lon="9.6690323">
        <ele>361.1124268</ele>
        <time>2009-01-31T12:21:01Z</time>
      </trkpt>
      <trkpt lat="45.8443314" lon="9.6690650">
        <ele>359.6704102</ele>
        <time>2009-01-31T12:21:21Z</time>
      </trkpt>
      <trkpt lat="45.8439413" lon="9.6690131">
        <ele>357.7478027</ele>
        <time>2009-01-31T12:21:28Z</time>
      </trkpt>
      <trkpt lat="45.8432094" lon="9.6687658">
        <ele>356.7863770</ele>
        <time>2009-01-31T12:21:40Z</time>
      </trkpt>
      <trkpt lat="45.8422728" lon="9.6684797">
        <ele>355.3444824</ele>
        <time>2009-01-31T12:21:56Z</time>
      </trkpt>
      <trkpt lat="45.8413697" lon="9.6682149">
        <ele>353.9025879</ele>
        <time>2009-01-31T12:22:11Z</time>
      </trkpt>
      <trkpt lat="45.8405721" lon="9.6679355">
        <ele>353.4218750</ele>
        <time>2009-01-31T12:22:25Z</time>
      </trkpt>
      <trkpt lat="45.8400829" lon="9.6677217">
        <ele>354.3831787</ele>
        <time>2009-01-31T12:22:38Z</time>
      </trkpt>
      <trkpt lat="45.8397797" lon="9.6675279">
        <ele>353.9025879</ele>
        <time>2009-01-31T12:22:48Z</time>
      </trkpt>
      <trkpt lat="45.8395223" lon="9.6673952">
        <ele>353.9025879</ele>
        <time>2009-01-31T12:22:54Z</time>
      </trkpt>
      <trkpt lat="45.8393492" lon="9.6672769">
        <ele>353.9025879</ele>
        <time>2009-01-31T12:22:58Z</time>
      </trkpt>
      <trkpt lat="45.8386891" lon="9.6669584">
        <ele>353.4218750</ele>
        <time>2009-01-31T12:23:11Z</time>
      </trkpt>
      <trkpt lat="45.8383243" lon="9.6668027">
        <ele>352.9411621</ele>
        <time>2009-01-31T12:23:18Z</time>
      </trkpt>
      <trkpt lat="45.8374212" lon="9.6667611">
        <ele>351.0184326</ele>
        <time>2009-01-31T12:23:33Z</time>
      </trkpt>
      <trkpt lat="45.8365045" lon="9.6669063">
        <ele>348.6152344</ele>
        <time>2009-01-31T12:23:47Z</time>
      </trkpt>
      <trkpt lat="45.8353989" lon="9.6670666">
        <ele>347.1732178</ele>
        <time>2009-01-31T12:24:03Z</time>
      </trkpt>
      <trkpt lat="45.8349498" lon="9.6671257">
        <ele>349.0958252</ele>
        <time>2009-01-31T12:24:13Z</time>
      </trkpt>
      <trkpt lat="45.8344705" lon="9.6671600">
        <ele>347.6539307</ele>
        <time>2009-01-31T12:24:24Z</time>
      </trkpt>
      <trkpt lat="45.8340442" lon="9.6670905">
        <ele>347.6539307</ele>
        <time>2009-01-31T12:24:33Z</time>
      </trkpt>
      <trkpt lat="45.8336512" lon="9.6670633">
        <ele>346.6926270</ele>
        <time>2009-01-31T12:24:41Z</time>
      </trkpt>
      <trkpt lat="45.8334878" lon="9.6672824">
        <ele>347.6539307</ele>
        <time>2009-01-31T12:24:46Z</time>
      </trkpt>
      <trkpt lat="45.8333488" lon="9.6674222">
        <ele>347.1732178</ele>
        <time>2009-01-31T12:24:50Z</time>
      </trkpt>
      <trkpt lat="45.8332080" lon="9.6674800">
        <ele>347.1732178</ele>
        <time>2009-01-31T12:24:53Z</time>
      </trkpt>
      <trkpt lat="45.8329710" lon="9.6675142">
        <ele>347.1732178</ele>
        <time>2009-01-31T12:24:58Z</time>
      </trkpt>
      <trkpt lat="45.8327754" lon="9.6675642">
        <ele>347.1732178</ele>
        <time>2009-01-31T12:25:02Z</time>
      </trkpt>
      <trkpt lat="45.8325489" lon="9.6676671">
        <ele>346.6926270</ele>
        <time>2009-01-31T12:25:07Z</time>
      </trkpt>
      <trkpt lat="45.8323599" lon="9.6677817">
        <ele>346.2120361</ele>
        <time>2009-01-31T12:25:11Z</time>
      </trkpt>
      <trkpt lat="45.8321322" lon="9.6678653">
        <ele>345.7313232</ele>
        <time>2009-01-31T12:25:15Z</time>
      </trkpt>
      <trkpt lat="45.8311379" lon="9.6678924">
        <ele>343.3278809</ele>
        <time>2009-01-31T12:25:30Z</time>
      </trkpt>
      <trkpt lat="45.8310750" lon="9.6678900">
        <ele>343.3278809</ele>
        <time>2009-01-31T12:25:31Z</time>
      </trkpt>
      <trkpt lat="45.8303334" lon="9.6678434">
        <ele>341.8859863</ele>
        <time>2009-01-31T12:25:42Z</time>
      </trkpt>
      <trkpt lat="45.8300917" lon="9.6678966">
        <ele>341.8859863</ele>
        <time>2009-01-31T12:25:46Z</time>
      </trkpt>
      <trkpt lat="45.8298457" lon="9.6679374">
        <ele>342.3666992</ele>
        <time>2009-01-31T12:25:51Z</time>
      </trkpt>
      <trkpt lat="45.8294151" lon="9.6681864">
        <ele>341.8859863</ele>
        <time>2009-01-31T12:26:00Z</time>
      </trkpt>
      <trkpt lat="45.8288092" lon="9.6689870">
        <ele>341.8859863</ele>
        <time>2009-01-31T12:26:16Z</time>
      </trkpt>
      <trkpt lat="45.8287119" lon="9.6690905">
        <ele>342.3666992</ele>
        <time>2009-01-31T12:26:23Z</time>
      </trkpt>
      <trkpt lat="45.8286453" lon="9.6691865">
        <ele>341.8859863</ele>
        <time>2009-01-31T12:26:27Z</time>
      </trkpt>
      <trkpt lat="45.8285930" lon="9.6693304">
        <ele>341.4052734</ele>
        <time>2009-01-31T12:26:30Z</time>
      </trkpt>
      <trkpt lat="45.8284837" lon="9.6695458">
        <ele>340.4440918</ele>
        <time>2009-01-31T12:26:34Z</time>
      </trkpt>
      <trkpt lat="45.8284313" lon="9.6696702">
        <ele>340.9246826</ele>
        <time>2009-01-31T12:26:36Z</time>
      </trkpt>
      <trkpt lat="45.8278595" lon="9.6708025">
        <ele>340.9246826</ele>
        <time>2009-01-31T12:26:53Z</time>
      </trkpt>
      <trkpt lat="45.8273053" lon="9.6718736">
        <ele>340.4440918</ele>
        <time>2009-01-31T12:27:09Z</time>
      </trkpt>
      <trkpt lat="45.8267608" lon="9.6729535">
        <ele>340.4440918</ele>
        <time>2009-01-31T12:27:25Z</time>
      </trkpt>
      <trkpt lat="45.8261428" lon="9.6737657">
        <ele>339.9633789</ele>
        <time>2009-01-31T12:27:40Z</time>
      </trkpt>
      <trkpt lat="45.8256916" lon="9.6740051">
        <ele>339.0020752</ele>
        <time>2009-01-31T12:27:49Z</time>
      </trkpt>
      <trkpt lat="45.8255232" lon="9.6740082">
        <ele>334.6761475</ele>
        <time>2009-01-31T12:27:52Z</time>
      </trkpt>
      <trkpt lat="45.8254559" lon="9.6740082">
        <ele>333.7147217</ele>
        <time>2009-01-31T12:27:53Z</time>
      </trkpt>
      <trkpt lat="45.8253169" lon="9.6740367">
        <ele>331.7921143</ele>
        <time>2009-01-31T12:27:55Z</time>
      </trkpt>
      <trkpt lat="45.8250483" lon="9.6745632">
        <ele>331.7921143</ele>
        <time>2009-01-31T12:28:02Z</time>
      </trkpt>
      <trkpt lat="45.8247012" lon="9.6750982">
        <ele>332.2728271</ele>
        <time>2009-01-31T12:28:11Z</time>
      </trkpt>
      <trkpt lat="45.8244707" lon="9.6753006">
        <ele>332.2728271</ele>
        <time>2009-01-31T12:28:16Z</time>
      </trkpt>
      <trkpt lat="45.8243063" lon="9.6753780">
        <ele>330.3502197</ele>
        <time>2009-01-31T12:28:19Z</time>
      </trkpt>
      <trkpt lat="45.8239281" lon="9.6756089">
        <ele>331.3115234</ele>
        <time>2009-01-31T12:28:26Z</time>
      </trkpt>
      <trkpt lat="45.8238328" lon="9.6756683">
        <ele>331.3115234</ele>
        <time>2009-01-31T12:28:28Z</time>
      </trkpt>
      <trkpt lat="45.8235385" lon="9.6758045">
        <ele>331.7921143</ele>
        <time>2009-01-31T12:28:37Z</time>
      </trkpt>
      <trkpt lat="45.8231445" lon="9.6759748">
        <ele>331.7921143</ele>
        <time>2009-01-31T12:28:49Z</time>
      </trkpt>
      <trkpt lat="45.8226043" lon="9.6761756">
        <ele>331.3115234</ele>
        <time>2009-01-31T12:29:03Z</time>
      </trkpt>
      <trkpt lat="45.8222755" lon="9.6763052">
        <ele>329.8695068</ele>
        <time>2009-01-31T12:29:13Z</time>
      </trkpt>
      <trkpt lat="45.8215245" lon="9.6763969">
        <ele>328.4276123</ele>
        <time>2009-01-31T12:29:28Z</time>
      </trkpt>
      <trkpt lat="45.8213097" lon="9.6763706">
        <ele>328.4276123</ele>
        <time>2009-01-31T12:29:32Z</time>
      </trkpt>
      <trkpt lat="45.8204362" lon="9.6759325">
        <ele>327.4661865</ele>
        <time>2009-01-31T12:29:49Z</time>
      </trkpt>
      <trkpt lat="45.8195089" lon="9.6751261">
        <ele>326.9855957</ele>
        <time>2009-01-31T12:30:07Z</time>
      </trkpt>
      <trkpt lat="45.8193719" lon="9.6750064">
        <ele>326.9855957</ele>
        <time>2009-01-31T12:30:10Z</time>
      </trkpt>
      <trkpt lat="45.8190533" lon="9.6748324">
        <ele>327.9467773</ele>
        <time>2009-01-31T12:30:18Z</time>
      </trkpt>
      <trkpt lat="45.8188217" lon="9.6746740">
        <ele>327.4661865</ele>
        <time>2009-01-31T12:30:24Z</time>
      </trkpt>
      <trkpt lat="45.8187462" lon="9.6746007">
        <ele>326.9855957</ele>
        <time>2009-01-31T12:30:26Z</time>
      </trkpt>
      <trkpt lat="45.8185115" lon="9.6743894">
        <ele>326.0241699</ele>
        <time>2009-01-31T12:30:31Z</time>
      </trkpt>
      <trkpt lat="45.8176373" lon="9.6737808">
        <ele>324.5822754</ele>
        <time>2009-01-31T12:30:48Z</time>
      </trkpt>
      <trkpt lat="45.8170702" lon="9.6736777">
        <ele>324.5822754</ele>
        <time>2009-01-31T12:30:58Z</time>
      </trkpt>
      <trkpt lat="45.8163586" lon="9.6735363">
        <ele>324.1015625</ele>
        <time>2009-01-31T12:31:12Z</time>
      </trkpt>
      <trkpt lat="45.8154851" lon="9.6736105">
        <ele>323.1403809</ele>
        <time>2009-01-31T12:31:27Z</time>
      </trkpt>
      <trkpt lat="45.8152620" lon="9.6737620">
        <ele>322.6596680</ele>
        <time>2009-01-31T12:31:31Z</time>
      </trkpt>
      <trkpt lat="45.8146750" lon="9.6744860">
        <ele>323.6209717</ele>
        <time>2009-01-31T12:31:44Z</time>
      </trkpt>
      <trkpt lat="45.8138585" lon="9.6753167">
        <ele>322.6596680</ele>
        <time>2009-01-31T12:32:01Z</time>
      </trkpt>
      <trkpt lat="45.8129406" lon="9.6761101">
        <ele>320.2563477</ele>
        <time>2009-01-31T12:32:17Z</time>
      </trkpt>
      <trkpt lat="45.8120535" lon="9.6770432">
        <ele>318.8143311</ele>
        <time>2009-01-31T12:32:33Z</time>
      </trkpt>
      <trkpt lat="45.8111705" lon="9.6780552">
        <ele>317.8530273</ele>
        <time>2009-01-31T12:32:50Z</time>
      </trkpt>
      <trkpt lat="45.8106755" lon="9.6787641">
        <ele>318.3336182</ele>
        <time>2009-01-31T12:33:01Z</time>
      </trkpt>
      <trkpt lat="45.8104718" lon="9.6789530">
        <ele>318.8143311</ele>
        <time>2009-01-31T12:33:05Z</time>
      </trkpt>
      <trkpt lat="45.8100706" lon="9.6793121">
        <ele>320.2563477</ele>
        <time>2009-01-31T12:33:15Z</time>
      </trkpt>
      <trkpt lat="45.8098984" lon="9.6794089">
        <ele>320.7370605</ele>
        <time>2009-01-31T12:33:19Z</time>
      </trkpt>
      <trkpt lat="45.8097418" lon="9.6794914">
        <ele>320.7370605</ele>
        <time>2009-01-31T12:33:23Z</time>
      </trkpt>
      <trkpt lat="45.8096594" lon="9.6795200">
        <ele>320.7370605</ele>
        <time>2009-01-31T12:33:25Z</time>
      </trkpt>
      <trkpt lat="45.8089996" lon="9.6798172">
        <ele>323.1403809</ele>
        <time>2009-01-31T12:33:43Z</time>
      </trkpt>
      <trkpt lat="45.8087836" lon="9.6798839">
        <ele>322.6596680</ele>
        <time>2009-01-31T12:33:48Z</time>
      </trkpt>
      <trkpt lat="45.8083425" lon="9.6800908">
        <ele>322.1789551</ele>
        <time>2009-01-31T12:33:58Z</time>
      </trkpt>
      <trkpt lat="45.8081829" lon="9.6801886">
        <ele>322.1789551</ele>
        <time>2009-01-31T12:34:02Z</time>
      </trkpt>
      <trkpt lat="45.8079803" lon="9.6802935">
        <ele>323.1403809</ele>
        <time>2009-01-31T12:34:13Z</time>
      </trkpt>
      <trkpt lat="45.8078784" lon="9.6803735">
        <ele>322.1789551</ele>
        <time>2009-01-31T12:34:24Z</time>
      </trkpt>
      <trkpt lat="45.8077788" lon="9.6803329">
        <ele>322.1789551</ele>
        <time>2009-01-31T12:34:28Z</time>
      </trkpt>
      <trkpt lat="45.8072334" lon="9.6797508">
        <ele>318.8143311</ele>
        <time>2009-01-31T12:34:41Z</time>
      </trkpt>
      <trkpt lat="45.8071011" lon="9.6790550">
        <ele>318.3336182</ele>
        <time>2009-01-31T12:34:51Z</time>
      </trkpt>
      <trkpt lat="45.8071495" lon="9.6787822">
        <ele>319.2950439</ele>
        <time>2009-01-31T12:34:55Z</time>
      </trkpt>
      <trkpt lat="45.8073000" lon="9.6782087">
        <ele>320.7370605</ele>
        <time>2009-01-31T12:35:08Z</time>
      </trkpt>
      <trkpt lat="45.8069978" lon="9.6778911">
        <ele>320.2563477</ele>
        <time>2009-01-31T12:35:18Z</time>
      </trkpt>
      <trkpt lat="45.8069083" lon="9.6777995">
        <ele>320.2563477</ele>
        <time>2009-01-31T12:35:22Z</time>
      </trkpt>
      <trkpt lat="45.8067868" lon="9.6777512">
        <ele>320.2563477</ele>
        <time>2009-01-31T12:35:28Z</time>
      </trkpt>
      <trkpt lat="45.8063857" lon="9.6775194">
        <ele>319.2950439</ele>
        <time>2009-01-31T12:35:38Z</time>
      </trkpt>
      <trkpt lat="45.8061550" lon="9.6772937">
        <ele>319.2950439</ele>
        <time>2009-01-31T12:35:44Z</time>
      </trkpt>
      <trkpt lat="45.8059896" lon="9.6769725">
        <ele>319.2950439</ele>
        <time>2009-01-31T12:35:50Z</time>
      </trkpt>
      <trkpt lat="45.8057201" lon="9.6763921">
        <ele>318.8143311</ele>
        <time>2009-01-31T12:36:00Z</time>
      </trkpt>
      <trkpt lat="45.8053036" lon="9.6751199">
        <ele>317.3724365</ele>
        <time>2009-01-31T12:36:18Z</time>
      </trkpt>
      <trkpt lat="45.8048495" lon="9.6736510">
        <ele>314.9691162</ele>
        <time>2009-01-31T12:36:36Z</time>
      </trkpt>
      <trkpt lat="45.8043760" lon="9.6723032">
        <ele>313.5272217</ele>
        <time>2009-01-31T12:36:52Z</time>
      </trkpt>
      <trkpt lat="45.8038610" lon="9.6716824">
        <ele>312.0852051</ele>
        <time>2009-01-31T12:37:02Z</time>
      </trkpt>
      <trkpt lat="45.8031048" lon="9.6714080">
        <ele>312.0852051</ele>
        <time>2009-01-31T12:37:14Z</time>
      </trkpt>
      <trkpt lat="45.8028247" lon="9.6713032">
        <ele>312.0852051</ele>
        <time>2009-01-31T12:37:19Z</time>
      </trkpt>
      <trkpt lat="45.8020930" lon="9.6706318">
        <ele>311.6044922</ele>
        <time>2009-01-31T12:37:34Z</time>
      </trkpt>
      <trkpt lat="45.8013211" lon="9.6700840">
        <ele>311.1237793</ele>
        <time>2009-01-31T12:37:49Z</time>
      </trkpt>
      <trkpt lat="45.8006565" lon="9.6698354">
        <ele>311.1237793</ele>
        <time>2009-01-31T12:38:01Z</time>
      </trkpt>
      <trkpt lat="45.8001811" lon="9.6695904">
        <ele>311.1237793</ele>
        <time>2009-01-31T12:38:10Z</time>
      </trkpt>
      <trkpt lat="45.7992738" lon="9.6694348">
        <ele>310.6430664</ele>
        <time>2009-01-31T12:38:25Z</time>
      </trkpt>
      <trkpt lat="45.7983164" lon="9.6695482">
        <ele>309.6818848</ele>
        <time>2009-01-31T12:38:41Z</time>
      </trkpt>
      <trkpt lat="45.7972086" lon="9.6696704">
        <ele>309.2011719</ele>
        <time>2009-01-31T12:39:00Z</time>
      </trkpt>
      <trkpt lat="45.7968611" lon="9.6697156">
        <ele>309.2011719</ele>
        <time>2009-01-31T12:39:06Z</time>
      </trkpt>
      <trkpt lat="45.7959902" lon="9.6698534">
        <ele>308.7204590</ele>
        <time>2009-01-31T12:39:21Z</time>
      </trkpt>
      <trkpt lat="45.7956057" lon="9.6698940">
        <ele>308.7204590</ele>
        <time>2009-01-31T12:39:28Z</time>
      </trkpt>
      <trkpt lat="45.7953437" lon="9.6700651">
        <ele>309.2011719</ele>
        <time>2009-01-31T12:39:34Z</time>
      </trkpt>
      <trkpt lat="45.7951066" lon="9.6700963">
        <ele>308.2398682</ele>
        <time>2009-01-31T12:39:39Z</time>
      </trkpt>
      <trkpt lat="45.7948953" lon="9.6700570">
        <ele>307.7592773</ele>
        <time>2009-01-31T12:39:43Z</time>
      </trkpt>
      <trkpt lat="45.7943628" lon="9.6699778">
        <ele>307.2785645</ele>
        <time>2009-01-31T12:39:54Z</time>
      </trkpt>
      <trkpt lat="45.7942751" lon="9.6699463">
        <ele>307.2785645</ele>
        <time>2009-01-31T12:39:56Z</time>
      </trkpt>
      <trkpt lat="45.7941935" lon="9.6699220">
        <ele>307.2785645</ele>
        <time>2009-01-31T12:39:58Z</time>
      </trkpt>
      <trkpt lat="45.7939790" lon="9.6700992">
        <ele>304.8752441</ele>
        <time>2009-01-31T12:40:05Z</time>
      </trkpt>
      <trkpt lat="45.7938396" lon="9.6703834">
        <ele>302.4719238</ele>
        <time>2009-01-31T12:40:09Z</time>
      </trkpt>
      <trkpt lat="45.7937652" lon="9.6703922">
        <ele>302.4719238</ele>
        <time>2009-01-31T12:40:10Z</time>
      </trkpt>
      <trkpt lat="45.7932498" lon="9.6702422">
        <ele>303.4332275</ele>
        <time>2009-01-31T12:40:19Z</time>
      </trkpt>
      <trkpt lat="45.7925914" lon="9.6698020">
        <ele>302.9525146</ele>
        <time>2009-01-31T12:40:34Z</time>
      </trkpt>
      <trkpt lat="45.7924664" lon="9.6695761">
        <ele>301.9913330</ele>
        <time>2009-01-31T12:40:38Z</time>
      </trkpt>
      <trkpt lat="45.7923030" lon="9.6691206">
        <ele>302.9525146</ele>
        <time>2009-01-31T12:40:48Z</time>
      </trkpt>
      <trkpt lat="45.7922665" lon="9.6690518">
        <ele>303.4332275</ele>
        <time>2009-01-31T12:40:53Z</time>
      </trkpt>
      <trkpt lat="45.7923007" lon="9.6690480">
        <ele>303.4332275</ele>
        <time>2009-01-31T12:40:59Z</time>
      </trkpt>
      <trkpt lat="45.7922000" lon="9.6689041">
        <ele>304.8752441</ele>
        <time>2009-01-31T12:41:07Z</time>
      </trkpt>
      <trkpt lat="45.7922192" lon="9.6688292">
        <ele>304.8752441</ele>
        <time>2009-01-31T12:41:12Z</time>
      </trkpt>
      <trkpt lat="45.7923634" lon="9.6685813">
        <ele>305.3559570</ele>
        <time>2009-01-31T12:41:22Z</time>
      </trkpt>
      <trkpt lat="45.7923343" lon="9.6684650">
        <ele>304.8752441</ele>
        <time>2009-01-31T12:41:26Z</time>
      </trkpt>
      <trkpt lat="45.7922282" lon="9.6682320">
        <ele>304.3946533</ele>
        <time>2009-01-31T12:41:31Z</time>
      </trkpt>
      <trkpt lat="45.7921926" lon="9.6681229">
        <ele>303.9139404</ele>
        <time>2009-01-31T12:41:33Z</time>
      </trkpt>
      <trkpt lat="45.7921516" lon="9.6678888">
        <ele>303.9139404</ele>
        <time>2009-01-31T12:41:37Z</time>
      </trkpt>
      <trkpt lat="45.7921148" lon="9.6675149">
        <ele>301.9913330</ele>
        <time>2009-01-31T12:41:43Z</time>
      </trkpt>
      <trkpt lat="45.7921129" lon="9.6673312">
        <ele>302.4719238</ele>
        <time>2009-01-31T12:41:46Z</time>
      </trkpt>
      <trkpt lat="45.7920716" lon="9.6669334">
        <ele>301.9913330</ele>
        <time>2009-01-31T12:41:52Z</time>
      </trkpt>
      <trkpt lat="45.7920230" lon="9.6659418">
        <ele>300.0687256</ele>
        <time>2009-01-31T12:42:07Z</time>
      </trkpt>
      <trkpt lat="45.7920052" lon="9.6650821">
        <ele>298.6267090</ele>
        <time>2009-01-31T12:42:20Z</time>
      </trkpt>
      <trkpt lat="45.7920089" lon="9.6647561">
        <ele>299.1072998</ele>
        <time>2009-01-31T12:42:25Z</time>
      </trkpt>
      <trkpt lat="45.7919784" lon="9.6644914">
        <ele>298.6267090</ele>
        <time>2009-01-31T12:42:29Z</time>
      </trkpt>
      <trkpt lat="45.7919862" lon="9.6642324">
        <ele>298.6267090</ele>
        <time>2009-01-31T12:42:33Z</time>
      </trkpt>
      <trkpt lat="45.7920271" lon="9.6640034">
        <ele>299.1072998</ele>
        <time>2009-01-31T12:42:37Z</time>
      </trkpt>
      <trkpt lat="45.7921373" lon="9.6639644">
        <ele>299.5880127</ele>
        <time>2009-01-31T12:42:45Z</time>
      </trkpt>
      <trkpt lat="45.7921484" lon="9.6637784">
        <ele>299.1072998</ele>
        <time>2009-01-31T12:42:55Z</time>
      </trkpt>
      <trkpt lat="45.7921631" lon="9.6630663">
        <ele>297.6654053</ele>
        <time>2009-01-31T12:43:07Z</time>
      </trkpt>
      <trkpt lat="45.7921060" lon="9.6624592">
        <ele>297.6654053</ele>
        <time>2009-01-31T12:43:20Z</time>
      </trkpt>
      <trkpt lat="45.7920540" lon="9.6623824">
        <ele>297.1846924</ele>
        <time>2009-01-31T12:43:22Z</time>
      </trkpt>
      <trkpt lat="45.7920303" lon="9.6621629">
        <ele>297.1846924</ele>
        <time>2009-01-31T12:43:26Z</time>
      </trkpt>
      <trkpt lat="45.7920323" lon="9.6620547">
        <ele>297.1846924</ele>
        <time>2009-01-31T12:43:28Z</time>
      </trkpt>
      <trkpt lat="45.7920389" lon="9.6618505">
        <ele>296.7041016</ele>
        <time>2009-01-31T12:43:32Z</time>
      </trkpt>
      <trkpt lat="45.7920240" lon="9.6616287">
        <ele>296.7041016</ele>
        <time>2009-01-31T12:43:36Z</time>
      </trkpt>
      <trkpt lat="45.7920536" lon="9.6615511">
        <ele>297.1846924</ele>
        <time>2009-01-31T12:43:50Z</time>
      </trkpt>
      <trkpt lat="45.7920430" lon="9.6615334">
        <ele>297.6654053</ele>
        <time>2009-01-31T12:44:43Z</time>
      </trkpt>
    </trkseg>
  </trk>

</gpx>
